<?xml version='1.0' encoding='UTF-8'?><gpx version="1.1" creator="JPX - https://github.com/jenetics/jpx" xmlns="http://www.topografix.com/GPX/1/1"><trk><trkseg><trkpt lat="45.634256" lon="11.4153156"><ele>153.0</ele><time>2026-04-21T15:51:27.675Z</time></trkpt><trkpt lat="45.634294" lon="11.4153881"><ele>153.0</ele><time>2026-04-21T15:51:28.677Z</time></trkpt><trkpt lat="45.6341953" lon="11.4153959"><ele>153.0</ele><time>2026-04-21T15:51:54.723Z</time></trkpt><trkpt lat="45.6341851" lon="11.4155144"><ele>153.0</ele><time>2026-04-21T15:51:56.723Z</time></trkpt><trkpt lat="45.6342275" lon="11.4156458"><ele>153.0</ele><time>2026-04-21T15:51:58.722Z</time></trkpt><trkpt lat="45.6341722" lon="11.4158236"><ele>153.0</ele><time>2026-04-21T15:52:03.721Z</time></trkpt><trkpt lat="45.6341724" lon="11.4159416"><ele>153.0</ele><time>2026-04-21T15:52:04.723Z</time></trkpt><trkpt lat="45.6341631" lon="11.416035"><ele>153.0</ele><time>2026-04-21T15:52:05.723Z</time></trkpt><trkpt lat="45.634174" lon="11.4161756"><ele>153.0</ele><time>2026-04-21T15:52:06.723Z</time></trkpt><trkpt lat="45.6342274" lon="11.4163843"><ele>153.0</ele><time>2026-04-21T15:52:07.722Z</time></trkpt><trkpt lat="45.6342306" lon="11.4165053"><ele>151.20000000000002</ele><time>2026-04-21T15:52:08.723Z</time></trkpt><trkpt lat="45.6342253" lon="11.4165967"><ele>149.4</ele><time>2026-04-21T15:52:09.722Z</time></trkpt><trkpt lat="45.6342205" lon="11.4167434"><ele>147.60000000000002</ele><time>2026-04-21T15:52:10.723Z</time></trkpt><trkpt lat="45.6342416" lon="11.4169466"><ele>145.8</ele><time>2026-04-21T15:52:11.723Z</time></trkpt><trkpt lat="45.6342537" lon="11.4170584"><ele>144.0</ele><time>2026-04-21T15:52:12.722Z</time></trkpt><trkpt lat="45.634271" lon="11.4172007"><ele>142.8</ele><time>2026-04-21T15:52:13.723Z</time></trkpt><trkpt lat="45.6343341" lon="11.4174153"><ele>141.60000000000002</ele><time>2026-04-21T15:52:14.723Z</time></trkpt><trkpt lat="45.6343883" lon="11.4174875"><ele>140.4</ele><time>2026-04-21T15:52:15.723Z</time></trkpt><trkpt lat="45.6344623" lon="11.4175377"><ele>139.20000000000002</ele><time>2026-04-21T15:52:16.723Z</time></trkpt><trkpt lat="45.6345341" lon="11.4175305"><ele>138.0</ele><time>2026-04-21T15:52:17.723Z</time></trkpt><trkpt lat="45.6346528" lon="11.4174551"><ele>138.0</ele><time>2026-04-21T15:52:18.722Z</time></trkpt><trkpt lat="45.6347273" lon="11.4174733"><ele>138.0</ele><time>2026-04-21T15:52:19.723Z</time></trkpt><trkpt lat="45.6348006" lon="11.4174913"><ele>138.0</ele><time>2026-04-21T15:52:20.722Z</time></trkpt><trkpt lat="45.6348701" lon="11.4175117"><ele>138.0</ele><time>2026-04-21T15:52:21.722Z</time></trkpt><trkpt lat="45.6347989" lon="11.4176299"><ele>138.0</ele><time>2026-04-21T15:52:23.723Z</time></trkpt><trkpt lat="45.6347682" lon="11.4177812"><ele>138.0</ele><time>2026-04-21T15:52:25.723Z</time></trkpt><trkpt lat="45.6347108" lon="11.4178872"><ele>138.0</ele><time>2026-04-21T15:52:26.722Z</time></trkpt><trkpt lat="45.6346999" lon="11.4179792"><ele>138.0</ele><time>2026-04-21T15:52:27.721Z</time></trkpt><trkpt lat="45.6346687" lon="11.4181199"><ele>138.0</ele><time>2026-04-21T15:52:28.722Z</time></trkpt><trkpt lat="45.6346172" lon="11.4182707"><ele>138.0</ele><time>2026-04-21T15:52:29.722Z</time></trkpt><trkpt lat="45.6345743" lon="11.4183939"><ele>138.0</ele><time>2026-04-21T15:52:30.722Z</time></trkpt><trkpt lat="45.6345616" lon="11.4185043"><ele>135.25</ele><time>2026-04-21T15:52:31.723Z</time></trkpt><trkpt lat="45.6344221" lon="11.4185665"><ele>132.5</ele><time>2026-04-21T15:52:33.722Z</time></trkpt><trkpt lat="45.6343826" lon="11.4186624"><ele>129.75</ele><time>2026-04-21T15:52:34.722Z</time></trkpt><trkpt lat="45.6343231" lon="11.4188172"><ele>127.0</ele><time>2026-04-21T15:52:35.722Z</time></trkpt><trkpt lat="45.6342767" lon="11.4189764"><ele>125.6</ele><time>2026-04-21T15:52:36.723Z</time></trkpt><trkpt lat="45.6342912" lon="11.4191329"><ele>124.19999999999999</ele><time>2026-04-21T15:52:37.723Z</time></trkpt><trkpt lat="45.6342838" lon="11.4193074"><ele>122.8</ele><time>2026-04-21T15:52:38.723Z</time></trkpt><trkpt lat="45.6342642" lon="11.4194372"><ele>121.4</ele><time>2026-04-21T15:52:39.723Z</time></trkpt><trkpt lat="45.6342681" lon="11.4195324"><ele>120.0</ele><time>2026-04-21T15:52:40.722Z</time></trkpt><trkpt lat="45.6342826" lon="11.4197117"><ele>118.0</ele><time>2026-04-21T15:52:41.722Z</time></trkpt><trkpt lat="45.6343198" lon="11.4199055"><ele>116.0</ele><time>2026-04-21T15:52:42.722Z</time></trkpt><trkpt lat="45.6343402" lon="11.4200922"><ele>114.0</ele><time>2026-04-21T15:52:43.723Z</time></trkpt><trkpt lat="45.634389" lon="11.4202833"><ele>112.0</ele><time>2026-04-21T15:52:44.723Z</time></trkpt><trkpt lat="45.634424" lon="11.4204435"><ele>110.0</ele><time>2026-04-21T15:52:45.723Z</time></trkpt><trkpt lat="45.6344625" lon="11.4205987"><ele>108.0</ele><time>2026-04-21T15:52:46.722Z</time></trkpt><trkpt lat="45.6345093" lon="11.4207595"><ele>106.0</ele><time>2026-04-21T15:52:47.722Z</time></trkpt><trkpt lat="45.6345394" lon="11.4209277"><ele>104.0</ele><time>2026-04-21T15:52:48.721Z</time></trkpt><trkpt lat="45.6345763" lon="11.4210979"><ele>103.75</ele><time>2026-04-21T15:52:49.723Z</time></trkpt><trkpt lat="45.634611" lon="11.4212547"><ele>103.5</ele><time>2026-04-21T15:52:50.723Z</time></trkpt><trkpt lat="45.6346455" lon="11.4214299"><ele>103.25</ele><time>2026-04-21T15:52:51.722Z</time></trkpt><trkpt lat="45.6346925" lon="11.421602"><ele>103.0</ele><time>2026-04-21T15:52:52.723Z</time></trkpt><trkpt lat="45.6347258" lon="11.4217604"><ele>101.5</ele><time>2026-04-21T15:52:53.722Z</time></trkpt><trkpt lat="45.6347451" lon="11.4219264"><ele>100.0</ele><time>2026-04-21T15:52:54.723Z</time></trkpt><trkpt lat="45.6348054" lon="11.4221003"><ele>98.5</ele><time>2026-04-21T15:52:55.723Z</time></trkpt><trkpt lat="45.6348478" lon="11.422272"><ele>97.0</ele><time>2026-04-21T15:52:56.723Z</time></trkpt><trkpt lat="45.634891" lon="11.4224273"><ele>96.0</ele><time>2026-04-21T15:52:57.722Z</time></trkpt><trkpt lat="45.6349377" lon="11.4225502"><ele>95.0</ele><time>2026-04-21T15:52:58.722Z</time></trkpt><trkpt lat="45.6349687" lon="11.4227029"><ele>94.0</ele><time>2026-04-21T15:52:59.723Z</time></trkpt><trkpt lat="45.6350151" lon="11.4228664"><ele>93.0</ele><time>2026-04-21T15:53:00.723Z</time></trkpt><trkpt lat="45.6350631" lon="11.4229423"><ele>92.0</ele><time>2026-04-21T15:53:01.722Z</time></trkpt><trkpt lat="45.6350583" lon="11.4230957"><ele>91.6</ele><time>2026-04-21T15:53:03.723Z</time></trkpt><trkpt lat="45.6351129" lon="11.4231961"><ele>91.19999999999999</ele><time>2026-04-21T15:53:06.723Z</time></trkpt><trkpt lat="45.6351818" lon="11.4231941"><ele>90.8</ele><time>2026-04-21T15:53:09.723Z</time></trkpt><trkpt lat="45.6352537" lon="11.423155"><ele>90.4</ele><time>2026-04-21T15:53:11.723Z</time></trkpt><trkpt lat="45.6353447" lon="11.423102"><ele>90.0</ele><time>2026-04-21T15:53:13.722Z</time></trkpt><trkpt lat="45.6354408" lon="11.4230044"><ele>90.2</ele><time>2026-04-21T15:53:15.723Z</time></trkpt><trkpt lat="45.6355537" lon="11.422939"><ele>90.4</ele><time>2026-04-21T15:53:17.722Z</time></trkpt><trkpt lat="45.6356479" lon="11.422875"><ele>90.6</ele><time>2026-04-21T15:53:19.722Z</time></trkpt><trkpt lat="45.6357054" lon="11.4228283"><ele>90.8</ele><time>2026-04-21T15:53:20.723Z</time></trkpt><trkpt lat="45.635824" lon="11.4227597"><ele>91.0</ele><time>2026-04-21T15:53:22.723Z</time></trkpt><trkpt lat="45.6359266" lon="11.4227109"><ele>91.0</ele><time>2026-04-21T15:53:24.723Z</time></trkpt><trkpt lat="45.6360279" lon="11.4226653"><ele>91.0</ele><time>2026-04-21T15:53:26.723Z</time></trkpt><trkpt lat="45.6361282" lon="11.4226178"><ele>91.0</ele><time>2026-04-21T15:53:28.723Z</time></trkpt><trkpt lat="45.6362325" lon="11.4225378"><ele>91.0</ele><time>2026-04-21T15:53:30.723Z</time></trkpt><trkpt lat="45.6363256" lon="11.4225137"><ele>91.0</ele><time>2026-04-21T15:53:32.722Z</time></trkpt><trkpt lat="45.6364335" lon="11.4224377"><ele>91.0</ele><time>2026-04-21T15:53:34.722Z</time></trkpt><trkpt lat="45.6365398" lon="11.4223843"><ele>91.0</ele><time>2026-04-21T15:53:36.722Z</time></trkpt><trkpt lat="45.6366415" lon="11.4223656"><ele>91.0</ele><time>2026-04-21T15:53:38.723Z</time></trkpt><trkpt lat="45.6367269" lon="11.4223372"><ele>91.0</ele><time>2026-04-21T15:53:40.722Z</time></trkpt><trkpt lat="45.6367984" lon="11.4223117"><ele>91.0</ele><time>2026-04-21T15:53:42.721Z</time></trkpt><trkpt lat="45.6368967" lon="11.4223049"><ele>91.0</ele><time>2026-04-21T15:53:44.722Z</time></trkpt><trkpt lat="45.6369884" lon="11.4222495"><ele>91.0</ele><time>2026-04-21T15:53:46.723Z</time></trkpt><trkpt lat="45.6370515" lon="11.422214"><ele>91.0</ele><time>2026-04-21T15:53:47.722Z</time></trkpt><trkpt lat="45.6371445" lon="11.4221499"><ele>91.0</ele><time>2026-04-21T15:53:49.722Z</time></trkpt><trkpt lat="45.6372337" lon="11.4221033"><ele>91.0</ele><time>2026-04-21T15:53:51.722Z</time></trkpt><trkpt lat="45.6373171" lon="11.4220715"><ele>91.19999999999999</ele><time>2026-04-21T15:53:53.723Z</time></trkpt><trkpt lat="45.6374152" lon="11.422022"><ele>91.39999999999999</ele><time>2026-04-21T15:53:55.723Z</time></trkpt><trkpt lat="45.6375171" lon="11.4219766"><ele>91.6</ele><time>2026-04-21T15:53:57.723Z</time></trkpt><trkpt lat="45.6376122" lon="11.4219371"><ele>91.8</ele><time>2026-04-21T15:53:59.722Z</time></trkpt><trkpt lat="45.6377112" lon="11.4219098"><ele>92.0</ele><time>2026-04-21T15:54:01.723Z</time></trkpt><trkpt lat="45.6378206" lon="11.4218734"><ele>92.0</ele><time>2026-04-21T15:54:03.721Z</time></trkpt><trkpt lat="45.6379386" lon="11.4218166"><ele>92.0</ele><time>2026-04-21T15:54:05.721Z</time></trkpt><trkpt lat="45.6380436" lon="11.4217592"><ele>92.0</ele><time>2026-04-21T15:54:07.723Z</time></trkpt><trkpt lat="45.6381518" lon="11.4217163"><ele>92.0</ele><time>2026-04-21T15:54:09.722Z</time></trkpt><trkpt lat="45.638252" lon="11.4216651"><ele>92.0</ele><time>2026-04-21T15:54:11.721Z</time></trkpt><trkpt lat="45.6383477" lon="11.421613"><ele>92.0</ele><time>2026-04-21T15:54:13.722Z</time></trkpt><trkpt lat="45.6384387" lon="11.4215613"><ele>92.0</ele><time>2026-04-21T15:54:15.722Z</time></trkpt><trkpt lat="45.6385269" lon="11.4215037"><ele>92.0</ele><time>2026-04-21T15:54:17.723Z</time></trkpt><trkpt lat="45.6386302" lon="11.4214681"><ele>92.0</ele><time>2026-04-21T15:54:19.723Z</time></trkpt><trkpt lat="45.6387338" lon="11.4214281"><ele>92.39999999999999</ele><time>2026-04-21T15:54:21.722Z</time></trkpt><trkpt lat="45.6388292" lon="11.4213751"><ele>92.8</ele><time>2026-04-21T15:54:23.722Z</time></trkpt><trkpt lat="45.638932" lon="11.4213242"><ele>93.2</ele><time>2026-04-21T15:54:25.722Z</time></trkpt><trkpt lat="45.6390349" lon="11.421263"><ele>93.6</ele><time>2026-04-21T15:54:27.723Z</time></trkpt><trkpt lat="45.6391318" lon="11.4212125"><ele>94.0</ele><time>2026-04-21T15:54:29.723Z</time></trkpt><trkpt lat="45.6392234" lon="11.4211816"><ele>94.0</ele><time>2026-04-21T15:54:31.722Z</time></trkpt><trkpt lat="45.6393423" lon="11.4212287"><ele>94.0</ele><time>2026-04-21T15:54:34.721Z</time></trkpt><trkpt lat="45.6394107" lon="11.4213538"><ele>94.0</ele><time>2026-04-21T15:54:36.722Z</time></trkpt><trkpt lat="45.6394679" lon="11.421507"><ele>94.0</ele><time>2026-04-21T15:54:38.723Z</time></trkpt><trkpt lat="45.639513" lon="11.4216523"><ele>94.0</ele><time>2026-04-21T15:54:40.723Z</time></trkpt><trkpt lat="45.6395376" lon="11.4217805"><ele>94.0</ele><time>2026-04-21T15:54:42.722Z</time></trkpt><trkpt lat="45.6395812" lon="11.4219416"><ele>94.0</ele><time>2026-04-21T15:54:44.721Z</time></trkpt><trkpt lat="45.6396149" lon="11.4220328"><ele>94.0</ele><time>2026-04-21T15:54:45.722Z</time></trkpt><trkpt lat="45.6396523" lon="11.4221252"><ele>94.0</ele><time>2026-04-21T15:54:46.722Z</time></trkpt><trkpt lat="45.6396911" lon="11.4222182"><ele>94.0</ele><time>2026-04-21T15:54:47.722Z</time></trkpt><trkpt lat="45.6397305" lon="11.4223073"><ele>94.0</ele><time>2026-04-21T15:54:48.723Z</time></trkpt><trkpt lat="45.6397969" lon="11.422439"><ele>94.0</ele><time>2026-04-21T15:54:49.722Z</time></trkpt><trkpt lat="45.639858" lon="11.4225737"><ele>94.0</ele><time>2026-04-21T15:54:50.723Z</time></trkpt><trkpt lat="45.6399123" lon="11.4227248"><ele>94.0</ele><time>2026-04-21T15:54:52.722Z</time></trkpt><trkpt lat="45.6399416" lon="11.4228244"><ele>94.0</ele><time>2026-04-21T15:54:53.723Z</time></trkpt><trkpt lat="45.6399976" lon="11.422961"><ele>93.83333333333333</ele><time>2026-04-21T15:54:55.723Z</time></trkpt><trkpt lat="45.6400688" lon="11.4231077"><ele>93.66666666666666</ele><time>2026-04-21T15:54:57.723Z</time></trkpt><trkpt lat="45.6401038" lon="11.4232084"><ele>93.5</ele><time>2026-04-21T15:54:58.723Z</time></trkpt><trkpt lat="45.6401603" lon="11.4232747"><ele>93.33333333333333</ele><time>2026-04-21T15:54:59.722Z</time></trkpt><trkpt lat="45.6402369" lon="11.4233215"><ele>93.16666666666667</ele><time>2026-04-21T15:55:00.721Z</time></trkpt><trkpt lat="45.6403145" lon="11.4232969"><ele>93.0</ele><time>2026-04-21T15:55:01.722Z</time></trkpt><trkpt lat="45.6403859" lon="11.4232862"><ele>93.0</ele><time>2026-04-21T15:55:02.723Z</time></trkpt><trkpt lat="45.6404333" lon="11.4231979"><ele>93.0</ele><time>2026-04-21T15:55:03.722Z</time></trkpt><trkpt lat="45.6404979" lon="11.4231404"><ele>93.0</ele><time>2026-04-21T15:55:04.723Z</time></trkpt><trkpt lat="45.6405602" lon="11.4230748"><ele>93.0</ele><time>2026-04-21T15:55:05.722Z</time></trkpt><trkpt lat="45.6406599" lon="11.4229439"><ele>93.0</ele><time>2026-04-21T15:55:07.722Z</time></trkpt><trkpt lat="45.6407066" lon="11.422881"><ele>93.0</ele><time>2026-04-21T15:55:08.722Z</time></trkpt><trkpt lat="45.640756" lon="11.4228051"><ele>93.0</ele><time>2026-04-21T15:55:09.722Z</time></trkpt><trkpt lat="45.6408473" lon="11.4226911"><ele>93.0</ele><time>2026-04-21T15:55:11.723Z</time></trkpt><trkpt lat="45.6409061" lon="11.4226462"><ele>93.0</ele><time>2026-04-21T15:55:12.722Z</time></trkpt><trkpt lat="45.640963" lon="11.4225246"><ele>93.0</ele><time>2026-04-21T15:55:14.722Z</time></trkpt><trkpt lat="45.6410525" lon="11.4223972"><ele>93.0</ele><time>2026-04-21T15:55:16.722Z</time></trkpt><trkpt lat="45.6411581" lon="11.4223134"><ele>93.16666666666667</ele><time>2026-04-21T15:55:18.722Z</time></trkpt><trkpt lat="45.6412147" lon="11.4222566"><ele>93.33333333333333</ele><time>2026-04-21T15:55:19.722Z</time></trkpt><trkpt lat="45.6412981" lon="11.4221694"><ele>93.5</ele><time>2026-04-21T15:55:21.723Z</time></trkpt><trkpt lat="45.6413589" lon="11.4221265"><ele>93.66666666666666</ele><time>2026-04-21T15:55:22.723Z</time></trkpt><trkpt lat="45.641418" lon="11.4220832"><ele>93.83333333333333</ele><time>2026-04-21T15:55:23.722Z</time></trkpt><trkpt lat="45.6414893" lon="11.4220368"><ele>94.0</ele><time>2026-04-21T15:55:24.722Z</time></trkpt><trkpt lat="45.6415516" lon="11.4221248"><ele>94.0</ele><time>2026-04-21T15:55:25.722Z</time></trkpt><trkpt lat="45.64162" lon="11.4221653"><ele>94.0</ele><time>2026-04-21T15:55:26.722Z</time></trkpt><trkpt lat="45.6417402" lon="11.4221893"><ele>94.0</ele><time>2026-04-21T15:55:28.723Z</time></trkpt><trkpt lat="45.6418115" lon="11.4221216"><ele>94.0</ele><time>2026-04-21T15:55:29.722Z</time></trkpt><trkpt lat="45.6419224" lon="11.4220252"><ele>94.0</ele><time>2026-04-21T15:55:31.723Z</time></trkpt><trkpt lat="45.6420331" lon="11.4219647"><ele>97.0</ele><time>2026-04-21T15:55:33.723Z</time></trkpt><trkpt lat="45.6421696" lon="11.4218897"><ele>100.0</ele><time>2026-04-21T15:55:35.723Z</time></trkpt><trkpt lat="45.642288" lon="11.4218539"><ele>103.0</ele><time>2026-04-21T15:55:37.722Z</time></trkpt><trkpt lat="45.6424039" lon="11.421851"><ele>106.0</ele><time>2026-04-21T15:55:39.723Z</time></trkpt><trkpt lat="45.6425187" lon="11.4218414"><ele>106.0</ele><time>2026-04-21T15:55:41.722Z</time></trkpt><trkpt lat="45.6426468" lon="11.4218437"><ele>106.0</ele><time>2026-04-21T15:55:43.723Z</time></trkpt><trkpt lat="45.6427123" lon="11.4218427"><ele>106.0</ele><time>2026-04-21T15:55:44.722Z</time></trkpt><trkpt lat="45.6428382" lon="11.4218186"><ele>106.0</ele><time>2026-04-21T15:55:46.721Z</time></trkpt><trkpt lat="45.6429464" lon="11.4218265"><ele>106.0</ele><time>2026-04-21T15:55:48.722Z</time></trkpt><trkpt lat="45.6430444" lon="11.4218218"><ele>105.5</ele><time>2026-04-21T15:55:50.723Z</time></trkpt><trkpt lat="45.6431408" lon="11.4217778"><ele>105.0</ele><time>2026-04-21T15:55:52.722Z</time></trkpt><trkpt lat="45.6432524" lon="11.421714"><ele>104.5</ele><time>2026-04-21T15:55:54.722Z</time></trkpt><trkpt lat="45.6433645" lon="11.4216218"><ele>104.0</ele><time>2026-04-21T15:55:56.723Z</time></trkpt><trkpt lat="45.6434936" lon="11.4215331"><ele>103.99999999999999</ele><time>2026-04-21T15:55:58.723Z</time></trkpt><trkpt lat="45.6435781" lon="11.4214388"><ele>104.0</ele><time>2026-04-21T15:56:00.722Z</time></trkpt><trkpt lat="45.6436721" lon="11.4213594"><ele>104.0</ele><time>2026-04-21T15:56:02.722Z</time></trkpt><trkpt lat="45.6437237" lon="11.4212945"><ele>104.0</ele><time>2026-04-21T15:56:03.721Z</time></trkpt><trkpt lat="45.6437861" lon="11.4212535"><ele>103.99999999999999</ele><time>2026-04-21T15:56:04.721Z</time></trkpt><trkpt lat="45.6438436" lon="11.4212113"><ele>104.0</ele><time>2026-04-21T15:56:05.722Z</time></trkpt><trkpt lat="45.643908" lon="11.4211449"><ele>105.75</ele><time>2026-04-21T15:56:06.723Z</time></trkpt><trkpt lat="45.6440238" lon="11.4210493"><ele>107.5</ele><time>2026-04-21T15:56:08.722Z</time></trkpt><trkpt lat="45.6441111" lon="11.4210313"><ele>109.25</ele><time>2026-04-21T15:56:09.721Z</time></trkpt><trkpt lat="45.6442189" lon="11.4209398"><ele>111.0</ele><time>2026-04-21T15:56:11.723Z</time></trkpt><trkpt lat="45.6442936" lon="11.4208348"><ele>111.0</ele><time>2026-04-21T15:56:13.722Z</time></trkpt><trkpt lat="45.644349" lon="11.4207692"><ele>111.0</ele><time>2026-04-21T15:56:14.722Z</time></trkpt><trkpt lat="45.6444466" lon="11.4206171"><ele>111.0</ele><time>2026-04-21T15:56:16.722Z</time></trkpt><trkpt lat="45.6444953" lon="11.4205529"><ele>111.0</ele><time>2026-04-21T15:56:17.723Z</time></trkpt><trkpt lat="45.6446058" lon="11.4204591"><ele>111.0</ele><time>2026-04-21T15:56:19.722Z</time></trkpt><trkpt lat="45.6447086" lon="11.4203585"><ele>110.4</ele><time>2026-04-21T15:56:21.722Z</time></trkpt><trkpt lat="45.6447828" lon="11.4203278"><ele>109.8</ele><time>2026-04-21T15:56:22.723Z</time></trkpt><trkpt lat="45.6448917" lon="11.4201975"><ele>109.20000000000002</ele><time>2026-04-21T15:56:24.721Z</time></trkpt><trkpt lat="45.6449576" lon="11.4200893"><ele>108.60000000000001</ele><time>2026-04-21T15:56:26.723Z</time></trkpt><trkpt lat="45.6450264" lon="11.4200381"><ele>108.0</ele><time>2026-04-21T15:56:27.722Z</time></trkpt><trkpt lat="45.6451198" lon="11.4199599"><ele>108.0</ele><time>2026-04-21T15:56:29.723Z</time></trkpt><trkpt lat="45.6452308" lon="11.4199244"><ele>108.00000000000001</ele><time>2026-04-21T15:56:31.723Z</time></trkpt><trkpt lat="45.6452782" lon="11.4197696"><ele>108.00000000000001</ele><time>2026-04-21T15:56:33.722Z</time></trkpt><trkpt lat="45.645381" lon="11.4196901"><ele>108.0</ele><time>2026-04-21T15:56:35.723Z</time></trkpt><trkpt lat="45.6454467" lon="11.4195957"><ele>108.0</ele><time>2026-04-21T15:56:37.723Z</time></trkpt><trkpt lat="45.6455263" lon="11.4194944"><ele>106.66666666666667</ele><time>2026-04-21T15:56:39.722Z</time></trkpt><trkpt lat="45.645558" lon="11.4194127"><ele>105.33333333333334</ele><time>2026-04-21T15:56:40.722Z</time></trkpt><trkpt lat="45.6455978" lon="11.4193066"><ele>104.0</ele><time>2026-04-21T15:56:42.722Z</time></trkpt><trkpt lat="45.6456423" lon="11.4192185"><ele>102.66666666666667</ele><time>2026-04-21T15:56:44.723Z</time></trkpt><trkpt lat="45.6456902" lon="11.4191265"><ele>101.33333333333334</ele><time>2026-04-21T15:56:46.722Z</time></trkpt><trkpt lat="45.6457419" lon="11.4190378"><ele>100.0</ele><time>2026-04-21T15:56:48.721Z</time></trkpt><trkpt lat="45.6457955" lon="11.4189349"><ele>100.0</ele><time>2026-04-21T15:56:50.723Z</time></trkpt><trkpt lat="45.645845" lon="11.4188228"><ele>100.0</ele><time>2026-04-21T15:56:52.722Z</time></trkpt><trkpt lat="45.6458961" lon="11.4187053"><ele>100.0</ele><time>2026-04-21T15:56:54.721Z</time></trkpt><trkpt lat="45.6459608" lon="11.4185791"><ele>100.0</ele><time>2026-04-21T15:56:56.722Z</time></trkpt><trkpt lat="45.6460371" lon="11.418442"><ele>100.0</ele><time>2026-04-21T15:56:58.722Z</time></trkpt><trkpt lat="45.6461169" lon="11.4182981"><ele>99.66666666666667</ele><time>2026-04-21T15:57:00.723Z</time></trkpt><trkpt lat="45.6461575" lon="11.4182281"><ele>99.33333333333334</ele><time>2026-04-21T15:57:01.722Z</time></trkpt><trkpt lat="45.6461997" lon="11.418159"><ele>99.0</ele><time>2026-04-21T15:57:02.723Z</time></trkpt><trkpt lat="45.6462494" lon="11.4180918"><ele>98.66666666666666</ele><time>2026-04-21T15:57:03.722Z</time></trkpt><trkpt lat="45.6463011" lon="11.4180301"><ele>98.33333333333333</ele><time>2026-04-21T15:57:04.723Z</time></trkpt><trkpt lat="45.6463761" lon="11.4179522"><ele>98.0</ele><time>2026-04-21T15:57:05.723Z</time></trkpt><trkpt lat="45.6464608" lon="11.4178803"><ele>99.5</ele><time>2026-04-21T15:57:06.722Z</time></trkpt><trkpt lat="45.6466225" lon="11.4177698"><ele>101.0</ele><time>2026-04-21T15:57:09.721Z</time></trkpt><trkpt lat="45.6466965" lon="11.4177039"><ele>102.5</ele><time>2026-04-21T15:57:11.723Z</time></trkpt><trkpt lat="45.6467759" lon="11.4176246"><ele>104.0</ele><time>2026-04-21T15:57:13.721Z</time></trkpt><trkpt lat="45.6468512" lon="11.4175212"><ele>104.0</ele><time>2026-04-21T15:57:15.722Z</time></trkpt><trkpt lat="45.6468982" lon="11.4174047"><ele>104.0</ele><time>2026-04-21T15:57:17.722Z</time></trkpt><trkpt lat="45.6469652" lon="11.417288"><ele>104.0</ele><time>2026-04-21T15:57:19.721Z</time></trkpt><trkpt lat="45.6470437" lon="11.4171627"><ele>104.0</ele><time>2026-04-21T15:57:21.721Z</time></trkpt><trkpt lat="45.6471104" lon="11.4170667"><ele>104.0</ele><time>2026-04-21T15:57:23.723Z</time></trkpt><trkpt lat="45.6471775" lon="11.4169694"><ele>104.75</ele><time>2026-04-21T15:57:25.723Z</time></trkpt><trkpt lat="45.6472699" lon="11.4168759"><ele>105.5</ele><time>2026-04-21T15:57:27.723Z</time></trkpt><trkpt lat="45.6473791" lon="11.4168004"><ele>106.25</ele><time>2026-04-21T15:57:29.723Z</time></trkpt><trkpt lat="45.6474843" lon="11.4167418"><ele>107.0</ele><time>2026-04-21T15:57:31.722Z</time></trkpt><trkpt lat="45.6475807" lon="11.4166882"><ele>107.0</ele><time>2026-04-21T15:57:33.722Z</time></trkpt><trkpt lat="45.6476855" lon="11.416633"><ele>106.99999999999999</ele><time>2026-04-21T15:57:35.722Z</time></trkpt><trkpt lat="45.6477845" lon="11.4165912"><ele>106.99999999999999</ele><time>2026-04-21T15:57:37.722Z</time></trkpt><trkpt lat="45.6478874" lon="11.4165511"><ele>107.0</ele><time>2026-04-21T15:57:39.723Z</time></trkpt><trkpt lat="45.6479912" lon="11.4165105"><ele>107.0</ele><time>2026-04-21T15:57:41.722Z</time></trkpt><trkpt lat="45.6481015" lon="11.4164547"><ele>105.5</ele><time>2026-04-21T15:57:43.722Z</time></trkpt><trkpt lat="45.6482214" lon="11.4163854"><ele>104.0</ele><time>2026-04-21T15:57:45.722Z</time></trkpt><trkpt lat="45.6482926" lon="11.4163357"><ele>102.5</ele><time>2026-04-21T15:57:46.722Z</time></trkpt><trkpt lat="45.6483961" lon="11.4162352"><ele>101.0</ele><time>2026-04-21T15:57:47.722Z</time></trkpt><trkpt lat="45.6485014" lon="11.4161599"><ele>101.0</ele><time>2026-04-21T15:57:48.722Z</time></trkpt><trkpt lat="45.6485555" lon="11.4161102"><ele>101.0</ele><time>2026-04-21T15:57:49.723Z</time></trkpt><trkpt lat="45.6486177" lon="11.4160354"><ele>101.0</ele><time>2026-04-21T15:57:50.722Z</time></trkpt><trkpt lat="45.6486572" lon="11.4159618"><ele>101.0</ele><time>2026-04-21T15:57:51.722Z</time></trkpt><trkpt lat="45.6487109" lon="11.4158951"><ele>101.0</ele><time>2026-04-21T15:57:52.723Z</time></trkpt><trkpt lat="45.6487507" lon="11.4158116"><ele>101.0</ele><time>2026-04-21T15:57:53.722Z</time></trkpt><trkpt lat="45.6487883" lon="11.4157079"><ele>101.0</ele><time>2026-04-21T15:57:54.723Z</time></trkpt><trkpt lat="45.6488993" lon="11.4155734"><ele>100.99999999999999</ele><time>2026-04-21T15:57:56.723Z</time></trkpt><trkpt lat="45.648982" lon="11.4154895"><ele>101.0</ele><time>2026-04-21T15:57:58.722Z</time></trkpt><trkpt lat="45.6490753" lon="11.4153921"><ele>101.0</ele><time>2026-04-21T15:58:00.722Z</time></trkpt><trkpt lat="45.6491342" lon="11.4153194"><ele>101.0</ele><time>2026-04-21T15:58:01.723Z</time></trkpt><trkpt lat="45.6491787" lon="11.4152469"><ele>100.99999999999999</ele><time>2026-04-21T15:58:02.723Z</time></trkpt><trkpt lat="45.6492425" lon="11.4151873"><ele>101.0</ele><time>2026-04-21T15:58:03.723Z</time></trkpt><trkpt lat="45.6493234" lon="11.4150292"><ele>100.66666666666666</ele><time>2026-04-21T15:58:05.722Z</time></trkpt><trkpt lat="45.6493691" lon="11.4149562"><ele>100.33333333333333</ele><time>2026-04-21T15:58:06.722Z</time></trkpt><trkpt lat="45.6494236" lon="11.4148953"><ele>100.0</ele><time>2026-04-21T15:58:07.722Z</time></trkpt><trkpt lat="45.6494727" lon="11.4148065"><ele>99.66666666666666</ele><time>2026-04-21T15:58:08.722Z</time></trkpt><trkpt lat="45.6495155" lon="11.4147207"><ele>99.33333333333333</ele><time>2026-04-21T15:58:09.722Z</time></trkpt><trkpt lat="45.6495818" lon="11.4145543"><ele>99.0</ele><time>2026-04-21T15:58:11.722Z</time></trkpt><trkpt lat="45.6496462" lon="11.4144013"><ele>100.5</ele><time>2026-04-21T15:58:13.722Z</time></trkpt><trkpt lat="45.649717" lon="11.414251"><ele>102.0</ele><time>2026-04-21T15:58:15.722Z</time></trkpt><trkpt lat="45.6497399" lon="11.4141247"><ele>103.5</ele><time>2026-04-21T15:58:16.723Z</time></trkpt><trkpt lat="45.6498043" lon="11.4139803"><ele>105.0</ele><time>2026-04-21T15:58:18.722Z</time></trkpt><trkpt lat="45.6498974" lon="11.4138327"><ele>107.2</ele><time>2026-04-21T15:58:20.722Z</time></trkpt><trkpt lat="45.6499402" lon="11.413757"><ele>109.4</ele><time>2026-04-21T15:58:21.722Z</time></trkpt><trkpt lat="45.649981" lon="11.4136696"><ele>111.6</ele><time>2026-04-21T15:58:22.723Z</time></trkpt><trkpt lat="45.650019" lon="11.4135922"><ele>113.8</ele><time>2026-04-21T15:58:23.723Z</time></trkpt><trkpt lat="45.6500725" lon="11.4134478"><ele>116.0</ele><time>2026-04-21T15:58:25.722Z</time></trkpt><trkpt lat="45.6501762" lon="11.4133407"><ele>115.99999999999999</ele><time>2026-04-21T15:58:27.723Z</time></trkpt><trkpt lat="45.6502724" lon="11.4132768"><ele>116.0</ele><time>2026-04-21T15:58:29.723Z</time></trkpt><trkpt lat="45.650338" lon="11.4132248"><ele>116.0</ele><time>2026-04-21T15:58:30.721Z</time></trkpt><trkpt lat="45.6504009" lon="11.4132138"><ele>116.0</ele><time>2026-04-21T15:58:31.723Z</time></trkpt><trkpt lat="45.6504632" lon="11.4131981"><ele>115.99999999999999</ele><time>2026-04-21T15:58:32.723Z</time></trkpt><trkpt lat="45.6505615" lon="11.4131735"><ele>116.0</ele><time>2026-04-21T15:58:34.721Z</time></trkpt><trkpt lat="45.6506241" lon="11.4131576"><ele>114.4</ele><time>2026-04-21T15:58:35.723Z</time></trkpt><trkpt lat="45.650725" lon="11.4130977"><ele>112.8</ele><time>2026-04-21T15:58:37.722Z</time></trkpt><trkpt lat="45.6508257" lon="11.4130317"><ele>111.20000000000002</ele><time>2026-04-21T15:58:39.722Z</time></trkpt><trkpt lat="45.6508836" lon="11.4129918"><ele>109.60000000000001</ele><time>2026-04-21T15:58:40.723Z</time></trkpt><trkpt lat="45.6509459" lon="11.4129412"><ele>108.0</ele><time>2026-04-21T15:58:41.723Z</time></trkpt><trkpt lat="45.6510373" lon="11.4128858"><ele>108.0</ele><time>2026-04-21T15:58:43.722Z</time></trkpt><trkpt lat="45.6511087" lon="11.4128712"><ele>108.0</ele><time>2026-04-21T15:58:44.722Z</time></trkpt><trkpt lat="45.651174" lon="11.4128588"><ele>108.0</ele><time>2026-04-21T15:58:45.722Z</time></trkpt><trkpt lat="45.651239" lon="11.4128325"><ele>108.0</ele><time>2026-04-21T15:58:46.722Z</time></trkpt><trkpt lat="45.6512991" lon="11.4128035"><ele>108.0</ele><time>2026-04-21T15:58:47.723Z</time></trkpt><trkpt lat="45.6513648" lon="11.4127596"><ele>108.0</ele><time>2026-04-21T15:58:48.722Z</time></trkpt><trkpt lat="45.6514192" lon="11.4127058"><ele>108.0</ele><time>2026-04-21T15:58:49.723Z</time></trkpt><trkpt lat="45.6514834" lon="11.4126537"><ele>106.83333333333333</ele><time>2026-04-21T15:58:50.722Z</time></trkpt><trkpt lat="45.6515433" lon="11.4126192"><ele>105.66666666666666</ele><time>2026-04-21T15:58:51.721Z</time></trkpt><trkpt lat="45.6516451" lon="11.4125264"><ele>104.5</ele><time>2026-04-21T15:58:53.723Z</time></trkpt><trkpt lat="45.6517576" lon="11.4124502"><ele>103.33333333333333</ele><time>2026-04-21T15:58:55.721Z</time></trkpt><trkpt lat="45.651822" lon="11.4124265"><ele>102.16666666666666</ele><time>2026-04-21T15:58:56.722Z</time></trkpt><trkpt lat="45.6518906" lon="11.4124009"><ele>101.0</ele><time>2026-04-21T15:58:57.722Z</time></trkpt><trkpt lat="45.6519967" lon="11.4123774"><ele>101.0</ele><time>2026-04-21T15:58:59.722Z</time></trkpt><trkpt lat="45.6520849" lon="11.4123384"><ele>101.0</ele><time>2026-04-21T15:59:01.723Z</time></trkpt><trkpt lat="45.6521961" lon="11.4122908"><ele>101.0</ele><time>2026-04-21T15:59:03.723Z</time></trkpt><trkpt lat="45.6522997" lon="11.412251"><ele>101.0</ele><time>2026-04-21T15:59:05.722Z</time></trkpt><trkpt lat="45.6523823" lon="11.4121925"><ele>101.0</ele><time>2026-04-21T15:59:07.722Z</time></trkpt><trkpt lat="45.6524631" lon="11.4121085"><ele>101.16666666666666</ele><time>2026-04-21T15:59:09.723Z</time></trkpt><trkpt lat="45.6525209" lon="11.4120068"><ele>101.33333333333333</ele><time>2026-04-21T15:59:11.723Z</time></trkpt><trkpt lat="45.6525094" lon="11.4118502"><ele>101.5</ele><time>2026-04-21T15:59:13.723Z</time></trkpt><trkpt lat="45.6524542" lon="11.4116955"><ele>101.66666666666666</ele><time>2026-04-21T15:59:15.722Z</time></trkpt><trkpt lat="45.6524277" lon="11.4116138"><ele>101.83333333333333</ele><time>2026-04-21T15:59:16.722Z</time></trkpt><trkpt lat="45.6524032" lon="11.4115304"><ele>102.0</ele><time>2026-04-21T15:59:17.722Z</time></trkpt><trkpt lat="45.6523598" lon="11.411378"><ele>102.5</ele><time>2026-04-21T15:59:19.723Z</time></trkpt><trkpt lat="45.6523274" lon="11.4112549"><ele>103.0</ele><time>2026-04-21T15:59:21.722Z</time></trkpt><trkpt lat="45.6522928" lon="11.4111334"><ele>103.5</ele><time>2026-04-21T15:59:23.723Z</time></trkpt><trkpt lat="45.652254" lon="11.4110131"><ele>104.0</ele><time>2026-04-21T15:59:25.723Z</time></trkpt><trkpt lat="45.6522162" lon="11.4109067"><ele>104.5</ele><time>2026-04-21T15:59:27.723Z</time></trkpt><trkpt lat="45.6522042" lon="11.4108109"><ele>105.0</ele><time>2026-04-21T15:59:30.722Z</time></trkpt><trkpt lat="45.6522641" lon="11.4107684"><ele>105.0</ele><time>2026-04-21T15:59:34.722Z</time></trkpt><trkpt lat="45.6523424" lon="11.4106801"><ele>105.0</ele><time>2026-04-21T15:59:37.722Z</time></trkpt><trkpt lat="45.6524057" lon="11.4106276"><ele>105.0</ele><time>2026-04-21T15:59:39.722Z</time></trkpt><trkpt lat="45.6524696" lon="11.4105739"><ele>105.0</ele><time>2026-04-21T15:59:41.721Z</time></trkpt><trkpt lat="45.6525253" lon="11.4105016"><ele>105.0</ele><time>2026-04-21T15:59:43.723Z</time></trkpt><trkpt lat="45.6525883" lon="11.4104279"><ele>105.0</ele><time>2026-04-21T15:59:45.722Z</time></trkpt><trkpt lat="45.6526711" lon="11.4103728"><ele>105.16666666666667</ele><time>2026-04-21T15:59:47.723Z</time></trkpt><trkpt lat="45.6527353" lon="11.410315"><ele>105.33333333333334</ele><time>2026-04-21T15:59:49.723Z</time></trkpt><trkpt lat="45.652808" lon="11.4102684"><ele>105.5</ele><time>2026-04-21T15:59:52.723Z</time></trkpt><trkpt lat="45.6528821" lon="11.4101816"><ele>105.66666666666667</ele><time>2026-04-21T15:59:55.723Z</time></trkpt><trkpt lat="45.6529229" lon="11.4100792"><ele>105.83333333333334</ele><time>2026-04-21T15:59:57.723Z</time></trkpt><trkpt lat="45.6529406" lon="11.4099586"><ele>106.0</ele><time>2026-04-21T15:59:59.722Z</time></trkpt><trkpt lat="45.6529456" lon="11.4098407"><ele>106.00000000000001</ele><time>2026-04-21T16:00:01.723Z</time></trkpt><trkpt lat="45.6529492" lon="11.4097332"><ele>106.0</ele><time>2026-04-21T16:00:03.722Z</time></trkpt><trkpt lat="45.6529537" lon="11.4096306"><ele>106.0</ele><time>2026-04-21T16:00:05.723Z</time></trkpt><trkpt lat="45.6529698" lon="11.4095227"><ele>106.0</ele><time>2026-04-21T16:00:07.722Z</time></trkpt><trkpt lat="45.6529975" lon="11.4094215"><ele>106.00000000000001</ele><time>2026-04-21T16:00:09.722Z</time></trkpt><trkpt lat="45.6530196" lon="11.4093036"><ele>106.0</ele><time>2026-04-21T16:00:11.723Z</time></trkpt><trkpt lat="45.653022" lon="11.4091979"><ele>106.14285714285715</ele><time>2026-04-21T16:00:13.723Z</time></trkpt><trkpt lat="45.6530106" lon="11.4090831"><ele>106.28571428571428</ele><time>2026-04-21T16:00:16.722Z</time></trkpt><trkpt lat="45.6529949" lon="11.4089831"><ele>106.42857142857143</ele><time>2026-04-21T16:00:19.723Z</time></trkpt><trkpt lat="45.6529543" lon="11.4088941"><ele>106.57142857142858</ele><time>2026-04-21T16:00:22.722Z</time></trkpt><trkpt lat="45.652915" lon="11.4088109"><ele>106.71428571428572</ele><time>2026-04-21T16:00:26.722Z</time></trkpt><trkpt lat="45.6528967" lon="11.4087086"><ele>106.85714285714286</ele><time>2026-04-21T16:00:31.723Z</time></trkpt><trkpt lat="45.6528607" lon="11.4086229"><ele>107.0</ele><time>2026-04-21T16:00:35.723Z</time></trkpt><trkpt lat="45.6528263" lon="11.408528"><ele>109.14285714285715</ele><time>2026-04-21T16:00:39.722Z</time></trkpt><trkpt lat="45.6527836" lon="11.4084562"><ele>111.28571428571428</ele><time>2026-04-21T16:00:43.723Z</time></trkpt><trkpt lat="45.6527275" lon="11.4083871"><ele>113.42857142857142</ele><time>2026-04-21T16:00:47.722Z</time></trkpt><trkpt lat="45.6526774" lon="11.4083322"><ele>115.57142857142857</ele><time>2026-04-21T16:00:51.723Z</time></trkpt><trkpt lat="45.6526509" lon="11.4082475"><ele>117.71428571428571</ele><time>2026-04-21T16:00:55.722Z</time></trkpt><trkpt lat="45.6526112" lon="11.4081691"><ele>119.85714285714285</ele><time>2026-04-21T16:00:59.723Z</time></trkpt><trkpt lat="45.6525763" lon="11.4080751"><ele>121.99999999999999</ele><time>2026-04-21T16:01:04.723Z</time></trkpt><trkpt lat="45.6525374" lon="11.4079954"><ele>122.7142857142857</ele><time>2026-04-21T16:01:09.722Z</time></trkpt><trkpt lat="45.6525051" lon="11.4079042"><ele>123.42857142857142</ele><time>2026-04-21T16:01:13.722Z</time></trkpt><trkpt lat="45.652485" lon="11.407805"><ele>124.14285714285714</ele><time>2026-04-21T16:01:17.722Z</time></trkpt><trkpt lat="45.6524709" lon="11.4077094"><ele>124.85714285714285</ele><time>2026-04-21T16:01:21.723Z</time></trkpt><trkpt lat="45.6524588" lon="11.4076202"><ele>125.57142857142856</ele><time>2026-04-21T16:01:25.721Z</time></trkpt><trkpt lat="45.652416" lon="11.4075457"><ele>126.28571428571429</ele><time>2026-04-21T16:01:32.722Z</time></trkpt><trkpt lat="45.652343" lon="11.4075495"><ele>127.0</ele><time>2026-04-21T16:01:39.723Z</time></trkpt><trkpt lat="45.6522992" lon="11.4076194"><ele>127.0</ele><time>2026-04-21T16:01:45.722Z</time></trkpt><trkpt lat="45.6522518" lon="11.4077064"><ele>127.0</ele><time>2026-04-21T16:01:51.722Z</time></trkpt><trkpt lat="45.6522004" lon="11.4077844"><ele>127.0</ele><time>2026-04-21T16:01:57.723Z</time></trkpt><trkpt lat="45.6521474" lon="11.4078604"><ele>127.0</ele><time>2026-04-21T16:02:02.722Z</time></trkpt><trkpt lat="45.6520988" lon="11.4079453"><ele>127.0</ele><time>2026-04-21T16:02:07.722Z</time></trkpt><trkpt lat="45.6520395" lon="11.4079982"><ele>127.0</ele><time>2026-04-21T16:02:11.723Z</time></trkpt><trkpt lat="45.651971" lon="11.4079864"><ele>127.0</ele><time>2026-04-21T16:02:15.722Z</time></trkpt><trkpt lat="45.6518962" lon="11.4080185"><ele>128.71428571428572</ele><time>2026-04-21T16:02:19.723Z</time></trkpt><trkpt lat="45.65183" lon="11.4080675"><ele>130.42857142857142</ele><time>2026-04-21T16:02:25.722Z</time></trkpt><trkpt lat="45.6517789" lon="11.4081394"><ele>132.14285714285714</ele><time>2026-04-21T16:02:29.721Z</time></trkpt><trkpt lat="45.6517298" lon="11.4082173"><ele>133.85714285714286</ele><time>2026-04-21T16:02:33.722Z</time></trkpt><trkpt lat="45.6516642" lon="11.408284"><ele>135.57142857142858</ele><time>2026-04-21T16:02:37.722Z</time></trkpt><trkpt lat="45.6516195" lon="11.4083512"><ele>137.28571428571428</ele><time>2026-04-21T16:02:41.722Z</time></trkpt><trkpt lat="45.6515795" lon="11.4084266"><ele>139.0</ele><time>2026-04-21T16:02:45.721Z</time></trkpt><trkpt lat="45.6515076" lon="11.4084671"><ele>139.0</ele><time>2026-04-21T16:02:51.723Z</time></trkpt><trkpt lat="45.6514297" lon="11.4084996"><ele>139.0</ele><time>2026-04-21T16:02:55.722Z</time></trkpt><trkpt lat="45.6513697" lon="11.4085519"><ele>139.0</ele><time>2026-04-21T16:02:59.722Z</time></trkpt><trkpt lat="45.6513335" lon="11.408628"><ele>139.0</ele><time>2026-04-21T16:03:03.722Z</time></trkpt><trkpt lat="45.6512891" lon="11.4087023"><ele>139.0</ele><time>2026-04-21T16:03:07.723Z</time></trkpt><trkpt lat="45.6512457" lon="11.4087884"><ele>139.0</ele><time>2026-04-21T16:03:11.723Z</time></trkpt><trkpt lat="45.6512423" lon="11.4088892"><ele>139.0</ele><time>2026-04-21T16:03:15.721Z</time></trkpt><trkpt lat="45.6512192" lon="11.408975"><ele>138.71428571428572</ele><time>2026-04-21T16:03:20.723Z</time></trkpt><trkpt lat="45.6511916" lon="11.4090698"><ele>138.42857142857144</ele><time>2026-04-21T16:03:25.721Z</time></trkpt><trkpt lat="45.6511561" lon="11.4091461"><ele>138.14285714285717</ele><time>2026-04-21T16:03:29.723Z</time></trkpt><trkpt lat="45.6510994" lon="11.4092051"><ele>137.85714285714286</ele><time>2026-04-21T16:03:33.721Z</time></trkpt><trkpt lat="45.651059" lon="11.4092954"><ele>137.57142857142858</ele><time>2026-04-21T16:03:39.722Z</time></trkpt><trkpt lat="45.6510268" lon="11.4093921"><ele>137.2857142857143</ele><time>2026-04-21T16:03:45.723Z</time></trkpt><trkpt lat="45.6510227" lon="11.4094935"><ele>137.0</ele><time>2026-04-21T16:03:51.722Z</time></trkpt><trkpt lat="45.6509842" lon="11.4095871"><ele>139.14285714285717</ele><time>2026-04-21T16:03:57.723Z</time></trkpt><trkpt lat="45.6509247" lon="11.4096351"><ele>141.28571428571428</ele><time>2026-04-21T16:04:02.722Z</time></trkpt><trkpt lat="45.6508887" lon="11.4097093"><ele>143.42857142857144</ele><time>2026-04-21T16:04:05.723Z</time></trkpt><trkpt lat="45.6508525" lon="11.4097847"><ele>145.57142857142858</ele><time>2026-04-21T16:04:08.721Z</time></trkpt><trkpt lat="45.650836" lon="11.40988"><ele>147.71428571428572</ele><time>2026-04-21T16:04:12.722Z</time></trkpt><trkpt lat="45.6508184" lon="11.4099851"><ele>149.85714285714286</ele><time>2026-04-21T16:04:16.722Z</time></trkpt><trkpt lat="45.6507607" lon="11.4100483"><ele>152.0</ele><time>2026-04-21T16:04:21.722Z</time></trkpt><trkpt lat="45.6506866" lon="11.4100427"><ele>152.0</ele><time>2026-04-21T16:04:27.721Z</time></trkpt><trkpt lat="45.6506169" lon="11.4100326"><ele>152.0</ele><time>2026-04-21T16:04:33.722Z</time></trkpt><trkpt lat="45.6505447" lon="11.4100145"><ele>152.0</ele><time>2026-04-21T16:04:38.722Z</time></trkpt><trkpt lat="45.6504692" lon="11.4100173"><ele>152.0</ele><time>2026-04-21T16:04:45.721Z</time></trkpt><trkpt lat="45.6504051" lon="11.4099781"><ele>152.0</ele><time>2026-04-21T16:04:51.722Z</time></trkpt><trkpt lat="45.650328" lon="11.4099581"><ele>152.0</ele><time>2026-04-21T16:04:56.722Z</time></trkpt><trkpt lat="45.6502613" lon="11.409944"><ele>152.0</ele><time>2026-04-21T16:05:00.722Z</time></trkpt><trkpt lat="45.6501956" lon="11.4099595"><ele>154.42857142857142</ele><time>2026-04-21T16:05:06.722Z</time></trkpt><trkpt lat="45.6501252" lon="11.4099304"><ele>156.85714285714286</ele><time>2026-04-21T16:05:12.722Z</time></trkpt><trkpt lat="45.6500587" lon="11.4099464"><ele>159.28571428571428</ele><time>2026-04-21T16:05:16.722Z</time></trkpt><trkpt lat="45.6500072" lon="11.409866"><ele>161.71428571428572</ele><time>2026-04-21T16:05:21.722Z</time></trkpt><trkpt lat="45.6499632" lon="11.4097939"><ele>164.14285714285714</ele><time>2026-04-21T16:05:26.723Z</time></trkpt><trkpt lat="45.6498963" lon="11.4097747"><ele>166.57142857142858</ele><time>2026-04-21T16:05:31.721Z</time></trkpt><trkpt lat="45.6498268" lon="11.4097977"><ele>169.0</ele><time>2026-04-21T16:05:38.722Z</time></trkpt><trkpt lat="45.6497755" lon="11.4098563"><ele>169.0</ele><time>2026-04-21T16:05:42.723Z</time></trkpt><trkpt lat="45.6497026" lon="11.4098871"><ele>169.0</ele><time>2026-04-21T16:05:46.722Z</time></trkpt><trkpt lat="45.6496503" lon="11.4099553"><ele>169.0</ele><time>2026-04-21T16:05:51.721Z</time></trkpt><trkpt lat="45.6496241" lon="11.4100576"><ele>169.0</ele><time>2026-04-21T16:05:55.722Z</time></trkpt><trkpt lat="45.649569" lon="11.4101036"><ele>169.0</ele><time>2026-04-21T16:05:59.722Z</time></trkpt><trkpt lat="45.6495045" lon="11.4101673"><ele>169.0</ele><time>2026-04-21T16:06:04.723Z</time></trkpt><trkpt lat="45.6494533" lon="11.4102249"><ele>169.0</ele><time>2026-04-21T16:06:07.723Z</time></trkpt><trkpt lat="45.6493902" lon="11.4103064"><ele>168.66666666666669</ele><time>2026-04-21T16:06:10.722Z</time></trkpt><trkpt lat="45.6493443" lon="11.4103846"><ele>168.33333333333334</ele><time>2026-04-21T16:06:12.722Z</time></trkpt><trkpt lat="45.649288" lon="11.4104886"><ele>168.0</ele><time>2026-04-21T16:06:15.722Z</time></trkpt><trkpt lat="45.6492279" lon="11.4105807"><ele>167.66666666666666</ele><time>2026-04-21T16:06:18.723Z</time></trkpt><trkpt lat="45.6491826" lon="11.4106821"><ele>167.33333333333331</ele><time>2026-04-21T16:06:21.723Z</time></trkpt><trkpt lat="45.6491421" lon="11.4107799"><ele>167.0</ele><time>2026-04-21T16:06:24.722Z</time></trkpt><trkpt lat="45.64909" lon="11.4108616"><ele>167.0</ele><time>2026-04-21T16:06:27.723Z</time></trkpt><trkpt lat="45.6490394" lon="11.4109418"><ele>167.0</ele><time>2026-04-21T16:06:30.723Z</time></trkpt><trkpt lat="45.6489796" lon="11.4109976"><ele>167.0</ele><time>2026-04-21T16:06:32.722Z</time></trkpt><trkpt lat="45.6489091" lon="11.4110419"><ele>167.0</ele><time>2026-04-21T16:06:34.722Z</time></trkpt><trkpt lat="45.6488363" lon="11.4110896"><ele>167.0</ele><time>2026-04-21T16:06:36.723Z</time></trkpt><trkpt lat="45.648769" lon="11.4111334"><ele>167.0</ele><time>2026-04-21T16:06:38.723Z</time></trkpt><trkpt lat="45.6486912" lon="11.4111847"><ele>167.14285714285714</ele><time>2026-04-21T16:06:40.723Z</time></trkpt><trkpt lat="45.6486086" lon="11.4112331"><ele>167.28571428571428</ele><time>2026-04-21T16:06:42.722Z</time></trkpt><trkpt lat="45.6485448" lon="11.411266"><ele>167.42857142857144</ele><time>2026-04-21T16:06:44.723Z</time></trkpt><trkpt lat="45.6484793" lon="11.4113052"><ele>167.57142857142856</ele><time>2026-04-21T16:06:48.722Z</time></trkpt><trkpt lat="45.6484112" lon="11.4113124"><ele>167.71428571428572</ele><time>2026-04-21T16:06:54.721Z</time></trkpt><trkpt lat="45.6483458" lon="11.411336"><ele>167.85714285714286</ele><time>2026-04-21T16:06:59.722Z</time></trkpt><trkpt lat="45.6483019" lon="11.4114083"><ele>168.0</ele><time>2026-04-21T16:07:12.723Z</time></trkpt><trkpt lat="45.6482729" lon="11.4115104"><ele>168.71428571428572</ele><time>2026-04-21T16:07:16.722Z</time></trkpt><trkpt lat="45.6482425" lon="11.4115938"><ele>169.42857142857144</ele><time>2026-04-21T16:07:18.723Z</time></trkpt><trkpt lat="45.6482442" lon="11.4116913"><ele>170.14285714285714</ele><time>2026-04-21T16:07:20.722Z</time></trkpt><trkpt lat="45.6482408" lon="11.4118033"><ele>170.85714285714286</ele><time>2026-04-21T16:07:23.723Z</time></trkpt><trkpt lat="45.6482364" lon="11.4119036"><ele>171.57142857142858</ele><time>2026-04-21T16:07:26.722Z</time></trkpt><trkpt lat="45.6482442" lon="11.41202"><ele>172.28571428571428</ele><time>2026-04-21T16:07:30.722Z</time></trkpt><trkpt lat="45.6482405" lon="11.4121339"><ele>173.0</ele><time>2026-04-21T16:07:34.723Z</time></trkpt><trkpt lat="45.6482" lon="11.4122215"><ele>173.0</ele><time>2026-04-21T16:07:37.723Z</time></trkpt><trkpt lat="45.6481748" lon="11.4123345"><ele>173.0</ele><time>2026-04-21T16:07:41.722Z</time></trkpt><trkpt lat="45.6481364" lon="11.4124255"><ele>173.0</ele><time>2026-04-21T16:07:45.723Z</time></trkpt><trkpt lat="45.6481091" lon="11.412518"><ele>173.0</ele><time>2026-04-21T16:07:50.723Z</time></trkpt><trkpt lat="45.6481227" lon="11.4126077"><ele>173.0</ele><time>2026-04-21T16:07:53.722Z</time></trkpt><trkpt lat="45.6481241" lon="11.4127048"><ele>173.0</ele><time>2026-04-21T16:07:58.722Z</time></trkpt><trkpt lat="45.6480928" lon="11.4127931"><ele>173.0</ele><time>2026-04-21T16:08:04.722Z</time></trkpt><trkpt lat="45.6480841" lon="11.4129024"><ele>172.7142857142857</ele><time>2026-04-21T16:08:09.723Z</time></trkpt><trkpt lat="45.6480765" lon="11.4130036"><ele>172.42857142857144</ele><time>2026-04-21T16:08:13.723Z</time></trkpt><trkpt lat="45.6480343" lon="11.4130914"><ele>172.14285714285714</ele><time>2026-04-21T16:08:19.722Z</time></trkpt><trkpt lat="45.6480258" lon="11.4132048"><ele>171.85714285714283</ele><time>2026-04-21T16:08:24.722Z</time></trkpt><trkpt lat="45.6480498" lon="11.4133043"><ele>171.57142857142856</ele><time>2026-04-21T16:08:28.722Z</time></trkpt><trkpt lat="45.6479964" lon="11.4133539"><ele>171.28571428571428</ele><time>2026-04-21T16:08:34.723Z</time></trkpt><trkpt lat="45.6479473" lon="11.4134262"><ele>171.0</ele><time>2026-04-21T16:08:40.722Z</time></trkpt><trkpt lat="45.6478909" lon="11.4134708"><ele>170.99999999999997</ele><time>2026-04-21T16:08:46.722Z</time></trkpt><trkpt lat="45.6478573" lon="11.4135521"><ele>171.0</ele><time>2026-04-21T16:08:52.723Z</time></trkpt><trkpt lat="45.6478076" lon="11.413617"><ele>171.0</ele><time>2026-04-21T16:08:56.722Z</time></trkpt><trkpt lat="45.6477497" lon="11.4136721"><ele>171.0</ele><time>2026-04-21T16:09:01.723Z</time></trkpt><trkpt lat="45.647695" lon="11.4137223"><ele>171.0</ele><time>2026-04-21T16:09:06.723Z</time></trkpt><trkpt lat="45.6476218" lon="11.413751"><ele>170.99999999999997</ele><time>2026-04-21T16:09:10.722Z</time></trkpt><trkpt lat="45.6475503" lon="11.4137347"><ele>171.0</ele><time>2026-04-21T16:09:15.722Z</time></trkpt><trkpt lat="45.6474751" lon="11.4136921"><ele>175.42857142857142</ele><time>2026-04-21T16:09:18.722Z</time></trkpt><trkpt lat="45.6474035" lon="11.4136605"><ele>179.85714285714286</ele><time>2026-04-21T16:09:20.722Z</time></trkpt><trkpt lat="45.6473287" lon="11.4136228"><ele>184.28571428571428</ele><time>2026-04-21T16:09:22.723Z</time></trkpt><trkpt lat="45.6472532" lon="11.4136028"><ele>188.71428571428572</ele><time>2026-04-21T16:09:24.722Z</time></trkpt><trkpt lat="45.6471897" lon="11.4135744"><ele>193.14285714285714</ele><time>2026-04-21T16:09:28.722Z</time></trkpt><trkpt lat="45.6471096" lon="11.4135788"><ele>197.57142857142856</ele><time>2026-04-21T16:09:32.722Z</time></trkpt><trkpt lat="45.64704" lon="11.4135752"><ele>202.0</ele><time>2026-04-21T16:09:35.722Z</time></trkpt><trkpt lat="45.6469625" lon="11.413534"><ele>201.57142857142856</ele><time>2026-04-21T16:09:38.722Z</time></trkpt><trkpt lat="45.6468982" lon="11.4135158"><ele>201.14285714285714</ele><time>2026-04-21T16:09:41.723Z</time></trkpt><trkpt lat="45.6468177" lon="11.4134856"><ele>200.71428571428572</ele><time>2026-04-21T16:09:44.723Z</time></trkpt><trkpt lat="45.6467459" lon="11.4134707"><ele>200.28571428571428</ele><time>2026-04-21T16:09:46.723Z</time></trkpt><trkpt lat="45.646808" lon="11.4134861"><ele>199.85714285714286</ele><time>2026-04-21T16:09:47.723Z</time></trkpt><trkpt lat="45.646737" lon="11.4134992"><ele>199.42857142857142</ele><time>2026-04-21T16:09:50.723Z</time></trkpt><trkpt lat="45.6466726" lon="11.4135304"><ele>199.0</ele><time>2026-04-21T16:09:53.752Z</time></trkpt><trkpt lat="45.6466054" lon="11.4135423"><ele>198.99999999999997</ele><time>2026-04-21T16:09:55.723Z</time></trkpt><trkpt lat="45.6465306" lon="11.4135069"><ele>199.0</ele><time>2026-04-21T16:09:58.723Z</time></trkpt><trkpt lat="45.6464742" lon="11.4134574"><ele>199.0</ele><time>2026-04-21T16:10:01.713Z</time></trkpt><trkpt lat="45.6464045" lon="11.4134229"><ele>199.0</ele><time>2026-04-21T16:10:04.722Z</time></trkpt><trkpt lat="45.646333" lon="11.4134143"><ele>199.0</ele><time>2026-04-21T16:10:08.723Z</time></trkpt><trkpt lat="45.6462698" lon="11.4133977"><ele>198.99999999999997</ele><time>2026-04-21T16:10:13.722Z</time></trkpt><trkpt lat="45.6462054" lon="11.4133914"><ele>199.0</ele><time>2026-04-21T16:10:18.723Z</time></trkpt><trkpt lat="45.6461289" lon="11.4134118"><ele>199.83333333333331</ele><time>2026-04-21T16:10:23.721Z</time></trkpt><trkpt lat="45.6460626" lon="11.413444"><ele>200.66666666666666</ele><time>2026-04-21T16:10:27.723Z</time></trkpt><trkpt lat="45.6460053" lon="11.4135515"><ele>201.5</ele><time>2026-04-21T16:11:01.752Z</time></trkpt><trkpt lat="45.6459032" lon="11.4136315"><ele>202.33333333333331</ele><time>2026-04-21T16:11:04.723Z</time></trkpt><trkpt lat="45.6458499" lon="11.4136839"><ele>203.16666666666666</ele><time>2026-04-21T16:11:09.722Z</time></trkpt><trkpt lat="45.6458119" lon="11.4137591"><ele>204.0</ele><time>2026-04-21T16:11:15.723Z</time></trkpt><trkpt lat="45.645784" lon="11.4138463"><ele>204.42857142857144</ele><time>2026-04-21T16:11:19.722Z</time></trkpt><trkpt lat="45.6457741" lon="11.4139394"><ele>204.85714285714286</ele><time>2026-04-21T16:11:23.722Z</time></trkpt><trkpt lat="45.6457434" lon="11.4140436"><ele>205.28571428571428</ele><time>2026-04-21T16:11:28.722Z</time></trkpt><trkpt lat="45.6457215" lon="11.4141284"><ele>205.71428571428572</ele><time>2026-04-21T16:11:32.723Z</time></trkpt><trkpt lat="45.6457007" lon="11.4142249"><ele>206.14285714285714</ele><time>2026-04-21T16:11:37.723Z</time></trkpt><trkpt lat="45.645642" lon="11.4142832"><ele>206.57142857142858</ele><time>2026-04-21T16:11:43.722Z</time></trkpt><trkpt lat="45.6455803" lon="11.4143137"><ele>207.0</ele><time>2026-04-21T16:11:48.723Z</time></trkpt><trkpt lat="45.6455076" lon="11.4143098"><ele>207.0</ele><time>2026-04-21T16:11:55.722Z</time></trkpt><trkpt lat="45.6454943" lon="11.4144056"><ele>207.0</ele><time>2026-04-21T16:12:30.721Z</time></trkpt><trkpt lat="45.6454485" lon="11.4144707"><ele>207.0</ele><time>2026-04-21T16:12:33.722Z</time></trkpt><trkpt lat="45.6453792" lon="11.4145578"><ele>207.0</ele><time>2026-04-21T16:12:36.722Z</time></trkpt><trkpt lat="45.6452455" lon="11.4147356"><ele>207.0</ele><time>2026-04-21T16:12:38.723Z</time></trkpt><trkpt lat="45.6451951" lon="11.4148109"><ele>205.5</ele><time>2026-04-21T16:12:39.721Z</time></trkpt><trkpt lat="45.6451477" lon="11.4149113"><ele>204.0</ele><time>2026-04-21T16:12:40.723Z</time></trkpt><trkpt lat="45.6450996" lon="11.4149971"><ele>202.5</ele><time>2026-04-21T16:12:41.722Z</time></trkpt><trkpt lat="45.6450565" lon="11.41508"><ele>201.0</ele><time>2026-04-21T16:12:42.722Z</time></trkpt><trkpt lat="45.644948" lon="11.4151463"><ele>199.5</ele><time>2026-04-21T16:12:44.723Z</time></trkpt><trkpt lat="45.6448788" lon="11.415153"><ele>198.0</ele><time>2026-04-21T16:12:45.722Z</time></trkpt><trkpt lat="45.6447504" lon="11.4151285"><ele>198.0</ele><time>2026-04-21T16:12:47.723Z</time></trkpt><trkpt lat="45.6446827" lon="11.4151069"><ele>198.0</ele><time>2026-04-21T16:12:48.722Z</time></trkpt><trkpt lat="45.6445745" lon="11.4151659"><ele>198.0</ele><time>2026-04-21T16:12:50.723Z</time></trkpt><trkpt lat="45.6445181" lon="11.4152181"><ele>198.0</ele><time>2026-04-21T16:12:51.722Z</time></trkpt><trkpt lat="45.6445026" lon="11.4153279"><ele>198.0</ele><time>2026-04-21T16:12:52.722Z</time></trkpt><trkpt lat="45.6444587" lon="11.4154624"><ele>198.0</ele><time>2026-04-21T16:12:53.723Z</time></trkpt><trkpt lat="45.6444044" lon="11.4155432"><ele>194.66666666666666</ele><time>2026-04-21T16:12:54.722Z</time></trkpt><trkpt lat="45.6443464" lon="11.4156016"><ele>191.33333333333334</ele><time>2026-04-21T16:12:55.723Z</time></trkpt><trkpt lat="45.6442845" lon="11.4156638"><ele>188.0</ele><time>2026-04-21T16:12:56.722Z</time></trkpt><trkpt lat="45.6441878" lon="11.4156824"><ele>184.66666666666669</ele><time>2026-04-21T16:12:57.721Z</time></trkpt><trkpt lat="45.6441204" lon="11.4157369"><ele>181.33333333333334</ele><time>2026-04-21T16:12:58.722Z</time></trkpt><trkpt lat="45.6440219" lon="11.4158374"><ele>178.0</ele><time>2026-04-21T16:13:00.722Z</time></trkpt><trkpt lat="45.6439651" lon="11.4159169"><ele>178.0</ele><time>2026-04-21T16:13:01.723Z</time></trkpt><trkpt lat="45.6439243" lon="11.416018"><ele>178.0</ele><time>2026-04-21T16:13:03.722Z</time></trkpt><trkpt lat="45.6438262" lon="11.4161195"><ele>178.0</ele><time>2026-04-21T16:13:05.722Z</time></trkpt><trkpt lat="45.6436999" lon="11.4162016"><ele>178.0</ele><time>2026-04-21T16:13:07.721Z</time></trkpt><trkpt lat="45.6436375" lon="11.4163051"><ele>178.0</ele><time>2026-04-21T16:13:08.723Z</time></trkpt><trkpt lat="45.6435632" lon="11.4163509"><ele>177.33333333333334</ele><time>2026-04-21T16:13:09.723Z</time></trkpt><trkpt lat="45.6434883" lon="11.4163295"><ele>176.66666666666669</ele><time>2026-04-21T16:13:10.722Z</time></trkpt><trkpt lat="45.643439" lon="11.4162431"><ele>176.0</ele><time>2026-04-21T16:13:11.722Z</time></trkpt><trkpt lat="45.6433362" lon="11.4162322"><ele>175.33333333333334</ele><time>2026-04-21T16:13:13.722Z</time></trkpt><trkpt lat="45.6432751" lon="11.4162853"><ele>174.66666666666666</ele><time>2026-04-21T16:13:14.722Z</time></trkpt><trkpt lat="45.6432044" lon="11.4163303"><ele>174.0</ele><time>2026-04-21T16:13:15.723Z</time></trkpt><trkpt lat="45.6430944" lon="11.4164118"><ele>172.39999999999998</ele><time>2026-04-21T16:13:17.722Z</time></trkpt><trkpt lat="45.6430149" lon="11.4164822"><ele>170.8</ele><time>2026-04-21T16:13:19.723Z</time></trkpt><trkpt lat="45.6429317" lon="11.4165898"><ele>169.2</ele><time>2026-04-21T16:13:21.722Z</time></trkpt><trkpt lat="45.6428903" lon="11.4166607"><ele>167.60000000000002</ele><time>2026-04-21T16:13:23.722Z</time></trkpt><trkpt lat="45.6427956" lon="11.4167535"><ele>166.0</ele><time>2026-04-21T16:13:25.723Z</time></trkpt><trkpt lat="45.642725" lon="11.4167976"><ele>166.0</ele><time>2026-04-21T16:13:26.722Z</time></trkpt><trkpt lat="45.6426294" lon="11.4169017"><ele>166.0</ele><time>2026-04-21T16:13:28.722Z</time></trkpt><trkpt lat="45.6425224" lon="11.4169604"><ele>166.0</ele><time>2026-04-21T16:13:30.722Z</time></trkpt><trkpt lat="45.6424719" lon="11.4170339"><ele>166.0</ele><time>2026-04-21T16:13:31.723Z</time></trkpt><trkpt lat="45.6423879" lon="11.4171018"><ele>166.0</ele><time>2026-04-21T16:13:33.723Z</time></trkpt><trkpt lat="45.6423073" lon="11.4171989"><ele>166.0</ele><time>2026-04-21T16:13:35.722Z</time></trkpt><trkpt lat="45.6422033" lon="11.4172111"><ele>166.0</ele><time>2026-04-21T16:13:37.722Z</time></trkpt><trkpt lat="45.6421069" lon="11.417213"><ele>166.0</ele><time>2026-04-21T16:13:39.721Z</time></trkpt><trkpt lat="45.6420236" lon="11.4171523"><ele>166.0</ele><time>2026-04-21T16:13:42.722Z</time></trkpt><trkpt lat="45.6419753" lon="11.4170928"><ele>166.0</ele><time>2026-04-21T16:13:45.723Z</time></trkpt><trkpt lat="45.6419321" lon="11.4170241"><ele>166.0</ele><time>2026-04-21T16:13:50.723Z</time></trkpt><trkpt lat="45.6418832" lon="11.4169424"><ele>166.28571428571428</ele><time>2026-04-21T16:13:58.723Z</time></trkpt><trkpt lat="45.6418471" lon="11.4168506"><ele>166.57142857142858</ele><time>2026-04-21T16:14:04.723Z</time></trkpt><trkpt lat="45.6418058" lon="11.4167763"><ele>166.85714285714286</ele><time>2026-04-21T16:14:09.722Z</time></trkpt><trkpt lat="45.6417625" lon="11.4167027"><ele>167.14285714285714</ele><time>2026-04-21T16:14:14.722Z</time></trkpt><trkpt lat="45.6417227" lon="11.4166296"><ele>167.42857142857144</ele><time>2026-04-21T16:14:21.722Z</time></trkpt><trkpt lat="45.6416864" lon="11.416552"><ele>167.71428571428572</ele><time>2026-04-21T16:14:26.722Z</time></trkpt><trkpt lat="45.6416587" lon="11.4164697"><ele>168.0</ele><time>2026-04-21T16:14:32.722Z</time></trkpt><trkpt lat="45.641624" lon="11.4163901"><ele>168.0</ele><time>2026-04-21T16:14:38.723Z</time></trkpt><trkpt lat="45.6415762" lon="11.416328"><ele>168.0</ele><time>2026-04-21T16:14:44.722Z</time></trkpt><trkpt lat="45.6415125" lon="11.4163124"><ele>168.0</ele><time>2026-04-21T16:14:49.722Z</time></trkpt><trkpt lat="45.6414401" lon="11.4163145"><ele>168.0</ele><time>2026-04-21T16:14:56.722Z</time></trkpt><trkpt lat="45.6413722" lon="11.4162977"><ele>168.0</ele><time>2026-04-21T16:15:01.722Z</time></trkpt><trkpt lat="45.6412958" lon="11.4163001"><ele>168.0</ele><time>2026-04-21T16:15:06.722Z</time></trkpt><trkpt lat="45.641239" lon="11.4162523"><ele>168.0</ele><time>2026-04-21T16:15:12.722Z</time></trkpt><trkpt lat="45.6411903" lon="11.4161915"><ele>171.85714285714286</ele><time>2026-04-21T16:15:19.722Z</time></trkpt><trkpt lat="45.6411243" lon="11.4161954"><ele>175.71428571428572</ele><time>2026-04-21T16:15:24.722Z</time></trkpt><trkpt lat="45.6410533" lon="11.4161974"><ele>179.57142857142856</ele><time>2026-04-21T16:15:29.723Z</time></trkpt><trkpt lat="45.6409852" lon="11.4161717"><ele>183.42857142857144</ele><time>2026-04-21T16:15:35.721Z</time></trkpt><trkpt lat="45.6409235" lon="11.4161407"><ele>187.28571428571428</ele><time>2026-04-21T16:15:39.723Z</time></trkpt><trkpt lat="45.6408598" lon="11.4161158"><ele>191.14285714285714</ele><time>2026-04-21T16:15:44.722Z</time></trkpt><trkpt lat="45.6408033" lon="11.4160545"><ele>195.0</ele><time>2026-04-21T16:15:50.722Z</time></trkpt><trkpt lat="45.640731" lon="11.4160221"><ele>195.0</ele><time>2026-04-21T16:15:56.723Z</time></trkpt><trkpt lat="45.6406702" lon="11.4159958"><ele>195.0</ele><time>2026-04-21T16:16:02.722Z</time></trkpt><trkpt lat="45.6406092" lon="11.4159497"><ele>195.0</ele><time>2026-04-21T16:16:07.723Z</time></trkpt><trkpt lat="45.6405368" lon="11.4159387"><ele>195.0</ele><time>2026-04-21T16:16:13.723Z</time></trkpt><trkpt lat="45.6404678" lon="11.4159079"><ele>195.0</ele><time>2026-04-21T16:16:19.722Z</time></trkpt><trkpt lat="45.6404006" lon="11.4159029"><ele>195.0</ele><time>2026-04-21T16:16:24.722Z</time></trkpt><trkpt lat="45.6403331" lon="11.4158964"><ele>195.0</ele><time>2026-04-21T16:16:30.722Z</time></trkpt><trkpt lat="45.6402631" lon="11.4158959"><ele>195.28571428571428</ele><time>2026-04-21T16:16:35.722Z</time></trkpt><trkpt lat="45.6401989" lon="11.4158811"><ele>195.57142857142856</ele><time>2026-04-21T16:16:39.722Z</time></trkpt><trkpt lat="45.6401376" lon="11.4158433"><ele>195.85714285714286</ele><time>2026-04-21T16:16:44.721Z</time></trkpt><trkpt lat="45.6400742" lon="11.4158097"><ele>196.14285714285714</ele><time>2026-04-21T16:16:49.722Z</time></trkpt><trkpt lat="45.6400285" lon="11.4157349"><ele>196.42857142857144</ele><time>2026-04-21T16:16:54.722Z</time></trkpt><trkpt lat="45.6399735" lon="11.4156794"><ele>196.71428571428572</ele><time>2026-04-21T16:16:59.722Z</time></trkpt><trkpt lat="45.6399154" lon="11.4156215"><ele>197.0</ele><time>2026-04-21T16:17:04.721Z</time></trkpt><trkpt lat="45.6398826" lon="11.4155329"><ele>199.85714285714286</ele><time>2026-04-21T16:17:09.721Z</time></trkpt><trkpt lat="45.6398612" lon="11.4154466"><ele>202.71428571428572</ele><time>2026-04-21T16:17:14.721Z</time></trkpt><trkpt lat="45.6398233" lon="11.4153564"><ele>205.57142857142856</ele><time>2026-04-21T16:17:20.722Z</time></trkpt><trkpt lat="45.6397736" lon="11.4152809"><ele>208.42857142857144</ele><time>2026-04-21T16:17:25.722Z</time></trkpt><trkpt lat="45.6397295" lon="11.4152135"><ele>211.28571428571428</ele><time>2026-04-21T16:17:30.722Z</time></trkpt><trkpt lat="45.639667" lon="11.415186"><ele>214.14285714285714</ele><time>2026-04-21T16:17:35.721Z</time></trkpt><trkpt lat="45.639601" lon="11.4151659"><ele>217.0</ele><time>2026-04-21T16:17:39.722Z</time></trkpt><trkpt lat="45.6395372" lon="11.4151103"><ele>217.0</ele><time>2026-04-21T16:17:44.722Z</time></trkpt><trkpt lat="45.6394857" lon="11.4150559"><ele>217.0</ele><time>2026-04-21T16:17:49.72Z</time></trkpt><trkpt lat="45.6394215" lon="11.4150673"><ele>217.0</ele><time>2026-04-21T16:17:55.721Z</time></trkpt><trkpt lat="45.6393563" lon="11.415053"><ele>217.0</ele><time>2026-04-21T16:18:01.722Z</time></trkpt><trkpt lat="45.6392853" lon="11.4150371"><ele>217.0</ele><time>2026-04-21T16:18:06.722Z</time></trkpt><trkpt lat="45.6392176" lon="11.4149872"><ele>217.0</ele><time>2026-04-21T16:18:10.721Z</time></trkpt><trkpt lat="45.6391552" lon="11.4149402"><ele>217.0</ele><time>2026-04-21T16:18:14.721Z</time></trkpt><trkpt lat="45.6390842" lon="11.4149044"><ele>217.71428571428572</ele><time>2026-04-21T16:18:19.722Z</time></trkpt><trkpt lat="45.6390191" lon="11.4148476"><ele>218.42857142857144</ele><time>2026-04-21T16:18:24.721Z</time></trkpt><trkpt lat="45.6389616" lon="11.4147733"><ele>219.14285714285714</ele><time>2026-04-21T16:18:28.722Z</time></trkpt><trkpt lat="45.6389002" lon="11.4147098"><ele>219.85714285714286</ele><time>2026-04-21T16:18:32.721Z</time></trkpt><trkpt lat="45.6388381" lon="11.4146533"><ele>220.57142857142858</ele><time>2026-04-21T16:18:36.721Z</time></trkpt><trkpt lat="45.6387898" lon="11.4145653"><ele>221.28571428571428</ele><time>2026-04-21T16:18:40.721Z</time></trkpt><trkpt lat="45.6387628" lon="11.4144765"><ele>222.0</ele><time>2026-04-21T16:18:44.721Z</time></trkpt><trkpt lat="45.6387368" lon="11.4143877"><ele>222.0</ele><time>2026-04-21T16:18:48.722Z</time></trkpt><trkpt lat="45.638693" lon="11.4143194"><ele>222.0</ele><time>2026-04-21T16:18:52.722Z</time></trkpt><trkpt lat="45.638638" lon="11.4142441"><ele>222.0</ele><time>2026-04-21T16:18:56.721Z</time></trkpt><trkpt lat="45.6386065" lon="11.4141579"><ele>222.0</ele><time>2026-04-21T16:19:02.721Z</time></trkpt><trkpt lat="45.6385479" lon="11.414085"><ele>222.0</ele><time>2026-04-21T16:19:08.722Z</time></trkpt><trkpt lat="45.6385073" lon="11.4139879"><ele>222.0</ele><time>2026-04-21T16:19:12.721Z</time></trkpt><trkpt lat="45.6384769" lon="11.4138848"><ele>222.0</ele><time>2026-04-21T16:19:16.722Z</time></trkpt><trkpt lat="45.6384414" lon="11.4138085"><ele>224.14285714285714</ele><time>2026-04-21T16:19:20.722Z</time></trkpt><trkpt lat="45.6383686" lon="11.4137725"><ele>226.28571428571428</ele><time>2026-04-21T16:19:24.722Z</time></trkpt><trkpt lat="45.6383067" lon="11.4137443"><ele>228.42857142857142</ele><time>2026-04-21T16:19:27.722Z</time></trkpt><trkpt lat="45.6382569" lon="11.4136805"><ele>230.57142857142856</ele><time>2026-04-21T16:19:32.721Z</time></trkpt><trkpt lat="45.6382292" lon="11.4135996"><ele>232.71428571428572</ele><time>2026-04-21T16:19:37.721Z</time></trkpt><trkpt lat="45.6381709" lon="11.4135502"><ele>234.85714285714283</ele><time>2026-04-21T16:19:43.721Z</time></trkpt><trkpt lat="45.6381028" lon="11.4135173"><ele>236.99999999999997</ele><time>2026-04-21T16:19:51.721Z</time></trkpt><trkpt lat="45.6380406" lon="11.4135371"><ele>237.0</ele><time>2026-04-21T16:19:56.722Z</time></trkpt><trkpt lat="45.6379697" lon="11.4135164"><ele>237.0</ele><time>2026-04-21T16:20:01.721Z</time></trkpt><trkpt lat="45.6379005" lon="11.4134832"><ele>237.0</ele><time>2026-04-21T16:20:06.722Z</time></trkpt><trkpt lat="45.6378317" lon="11.4134742"><ele>237.0</ele><time>2026-04-21T16:20:12.722Z</time></trkpt><trkpt lat="45.6377659" lon="11.4134328"><ele>237.0</ele><time>2026-04-21T16:20:18.72Z</time></trkpt><trkpt lat="45.6375838" lon="11.4131839"><ele>235.57142857142856</ele><time>2026-04-21T16:20:28.722Z</time></trkpt><trkpt lat="45.6375777" lon="11.4130669"><ele>234.14285714285714</ele><time>2026-04-21T16:20:30.722Z</time></trkpt><trkpt lat="45.6376028" lon="11.4129814"><ele>232.71428571428572</ele><time>2026-04-21T16:20:31.721Z</time></trkpt><trkpt lat="45.6375541" lon="11.4129138"><ele>231.28571428571428</ele><time>2026-04-21T16:20:36.721Z</time></trkpt><trkpt lat="45.6375489" lon="11.4128107"><ele>229.8571428571429</ele><time>2026-04-21T16:20:40.722Z</time></trkpt><trkpt lat="45.6375288" lon="11.4127137"><ele>228.42857142857144</ele><time>2026-04-21T16:20:45.722Z</time></trkpt><trkpt lat="45.6375487" lon="11.4126224"><ele>227.0</ele><time>2026-04-21T16:20:53.721Z</time></trkpt><trkpt lat="45.6375902" lon="11.4125247"><ele>227.00000000000003</ele><time>2026-04-21T16:20:57.722Z</time></trkpt><trkpt lat="45.637638" lon="11.4124109"><ele>227.0</ele><time>2026-04-21T16:21:00.722Z</time></trkpt><trkpt lat="45.6376649" lon="11.4122906"><ele>227.0</ele><time>2026-04-21T16:21:02.721Z</time></trkpt><trkpt lat="45.6376656" lon="11.4121929"><ele>227.0</ele><time>2026-04-21T16:21:04.721Z</time></trkpt><trkpt lat="45.637665" lon="11.4120819"><ele>227.00000000000003</ele><time>2026-04-21T16:21:07.722Z</time></trkpt><trkpt lat="45.6376635" lon="11.4119714"><ele>227.0</ele><time>2026-04-21T16:21:11.721Z</time></trkpt><trkpt lat="45.6376678" lon="11.4118779"><ele>227.14285714285717</ele><time>2026-04-21T16:21:16.722Z</time></trkpt><trkpt lat="45.6376371" lon="11.4117809"><ele>227.2857142857143</ele><time>2026-04-21T16:21:25.721Z</time></trkpt><trkpt lat="45.637618" lon="11.4116802"><ele>227.42857142857144</ele><time>2026-04-21T16:21:29.722Z</time></trkpt><trkpt lat="45.6375848" lon="11.4116003"><ele>227.57142857142856</ele><time>2026-04-21T16:21:34.721Z</time></trkpt><trkpt lat="45.6375307" lon="11.4115465"><ele>227.7142857142857</ele><time>2026-04-21T16:21:41.721Z</time></trkpt><trkpt lat="45.6375271" lon="11.4114459"><ele>227.85714285714283</ele><time>2026-04-21T16:21:46.722Z</time></trkpt><trkpt lat="45.637568" lon="11.4113579"><ele>228.0</ele><time>2026-04-21T16:21:51.721Z</time></trkpt><trkpt lat="45.6376125" lon="11.4112878"><ele>228.42857142857142</ele><time>2026-04-21T16:21:56.722Z</time></trkpt><trkpt lat="45.6376636" lon="11.4112204"><ele>228.85714285714283</ele><time>2026-04-21T16:22:00.722Z</time></trkpt><trkpt lat="45.6377132" lon="11.4111435"><ele>229.28571428571428</ele><time>2026-04-21T16:22:06.721Z</time></trkpt><trkpt lat="45.6377578" lon="11.4110738"><ele>229.71428571428572</ele><time>2026-04-21T16:22:11.721Z</time></trkpt><trkpt lat="45.6378051" lon="11.4109942"><ele>230.14285714285714</ele><time>2026-04-21T16:22:18.722Z</time></trkpt><trkpt lat="45.6378483" lon="11.4109098"><ele>230.57142857142856</ele><time>2026-04-21T16:22:23.721Z</time></trkpt><trkpt lat="45.6378806" lon="11.4108293"><ele>231.0</ele><time>2026-04-21T16:22:28.722Z</time></trkpt><trkpt lat="45.6379215" lon="11.410749"><ele>234.71428571428572</ele><time>2026-04-21T16:22:33.722Z</time></trkpt><trkpt lat="45.637964" lon="11.410674"><ele>238.42857142857144</ele><time>2026-04-21T16:22:37.722Z</time></trkpt><trkpt lat="45.6380087" lon="11.4105893"><ele>242.14285714285714</ele><time>2026-04-21T16:22:43.722Z</time></trkpt><trkpt lat="45.6380457" lon="11.4105006"><ele>245.85714285714286</ele><time>2026-04-21T16:22:50.721Z</time></trkpt><trkpt lat="45.6380287" lon="11.4103988"><ele>249.57142857142858</ele><time>2026-04-21T16:22:55.721Z</time></trkpt><trkpt lat="45.6380385" lon="11.4103097"><ele>253.28571428571428</ele><time>2026-04-21T16:23:01.721Z</time></trkpt><trkpt lat="45.6380329" lon="11.4102187"><ele>257.0</ele><time>2026-04-21T16:23:09.721Z</time></trkpt><trkpt lat="45.6380161" lon="11.4101176"><ele>257.57142857142856</ele><time>2026-04-21T16:23:15.721Z</time></trkpt><trkpt lat="45.6380156" lon="11.4100129"><ele>258.14285714285717</ele><time>2026-04-21T16:23:21.721Z</time></trkpt><trkpt lat="45.6380536" lon="11.4099255"><ele>258.7142857142857</ele><time>2026-04-21T16:23:25.721Z</time></trkpt><trkpt lat="45.6380918" lon="11.4098371"><ele>259.2857142857143</ele><time>2026-04-21T16:23:30.722Z</time></trkpt><trkpt lat="45.6381077" lon="11.4097496"><ele>259.85714285714283</ele><time>2026-04-21T16:23:35.722Z</time></trkpt><trkpt lat="45.6381421" lon="11.4096734"><ele>260.42857142857144</ele><time>2026-04-21T16:23:41.722Z</time></trkpt><trkpt lat="45.638203" lon="11.4097231"><ele>261.0</ele><time>2026-04-21T16:23:53.721Z</time></trkpt><trkpt lat="45.6382966" lon="11.409837"><ele>270.0</ele><time>2026-04-21T16:24:09.721Z</time></trkpt><trkpt lat="45.6409278" lon="11.4081893"><ele>270.0</ele><time>2026-04-21T16:27:13.721Z</time></trkpt><trkpt lat="45.6410053" lon="11.4081391"><ele>270.0</ele><time>2026-04-21T16:27:17.721Z</time></trkpt><trkpt lat="45.6410802" lon="11.4081001"><ele>270.0</ele><time>2026-04-21T16:27:20.722Z</time></trkpt><trkpt lat="45.6411447" lon="11.408057"><ele>270.0</ele><time>2026-04-21T16:27:23.722Z</time></trkpt><trkpt lat="45.6412124" lon="11.4080386"><ele>270.0</ele><time>2026-04-21T16:27:27.722Z</time></trkpt><trkpt lat="45.6412881" lon="11.4080293"><ele>270.0</ele><time>2026-04-21T16:27:31.722Z</time></trkpt><trkpt lat="45.6413725" lon="11.408007"><ele>271.0</ele><time>2026-04-21T16:27:35.72Z</time></trkpt><trkpt lat="45.6414352" lon="11.4079959"><ele>272.0</ele><time>2026-04-21T16:27:38.721Z</time></trkpt><trkpt lat="45.6415197" lon="11.40799"><ele>273.0</ele><time>2026-04-21T16:27:42.721Z</time></trkpt><trkpt lat="45.6415998" lon="11.4079745"><ele>274.0</ele><time>2026-04-21T16:27:46.722Z</time></trkpt><trkpt lat="45.6416706" lon="11.4079538"><ele>275.0</ele><time>2026-04-21T16:27:50.721Z</time></trkpt><trkpt lat="45.6417324" lon="11.4079362"><ele>276.0</ele><time>2026-04-21T16:27:53.721Z</time></trkpt><trkpt lat="45.6417957" lon="11.4079201"><ele>277.0</ele><time>2026-04-21T16:27:56.721Z</time></trkpt><trkpt lat="45.6418615" lon="11.4079086"><ele>277.2857142857143</ele><time>2026-04-21T16:27:59.721Z</time></trkpt><trkpt lat="45.6419267" lon="11.4078962"><ele>277.57142857142856</ele><time>2026-04-21T16:28:02.722Z</time></trkpt><trkpt lat="45.6419994" lon="11.4078579"><ele>277.85714285714283</ele><time>2026-04-21T16:28:06.721Z</time></trkpt><trkpt lat="45.6420698" lon="11.4078168"><ele>278.1428571428571</ele><time>2026-04-21T16:28:10.721Z</time></trkpt><trkpt lat="45.6421552" lon="11.4078095"><ele>278.42857142857144</ele><time>2026-04-21T16:28:15.722Z</time></trkpt><trkpt lat="45.6422144" lon="11.407845"><ele>278.71428571428567</ele><time>2026-04-21T16:28:19.721Z</time></trkpt><trkpt lat="45.6422629" lon="11.4079351"><ele>279.0</ele><time>2026-04-21T16:28:24.721Z</time></trkpt><trkpt lat="45.6422967" lon="11.4080321"><ele>281.1428571428571</ele><time>2026-04-21T16:28:28.722Z</time></trkpt><trkpt lat="45.6423396" lon="11.408119"><ele>283.2857142857143</ele><time>2026-04-21T16:28:32.72Z</time></trkpt><trkpt lat="45.642348" lon="11.408225"><ele>285.42857142857144</ele><time>2026-04-21T16:28:37.721Z</time></trkpt><trkpt lat="45.6423783" lon="11.4083222"><ele>287.57142857142856</ele><time>2026-04-21T16:28:42.722Z</time></trkpt><trkpt lat="45.6424352" lon="11.4083663"><ele>289.7142857142857</ele><time>2026-04-21T16:28:47.721Z</time></trkpt><trkpt lat="45.6425032" lon="11.4083689"><ele>291.85714285714283</ele><time>2026-04-21T16:28:51.721Z</time></trkpt><trkpt lat="45.6425845" lon="11.4083489"><ele>294.0</ele><time>2026-04-21T16:28:56.722Z</time></trkpt><trkpt lat="45.6426799" lon="11.4083442"><ele>294.0</ele><time>2026-04-21T16:29:01.722Z</time></trkpt><trkpt lat="45.6427575" lon="11.4083279"><ele>294.0</ele><time>2026-04-21T16:29:05.722Z</time></trkpt><trkpt lat="45.6428208" lon="11.4082888"><ele>294.0</ele><time>2026-04-21T16:29:09.722Z</time></trkpt><trkpt lat="45.6428855" lon="11.4082376"><ele>294.0</ele><time>2026-04-21T16:29:15.721Z</time></trkpt><trkpt lat="45.6429427" lon="11.4081979"><ele>294.0</ele><time>2026-04-21T16:29:19.722Z</time></trkpt><trkpt lat="45.6430095" lon="11.4081406"><ele>294.0</ele><time>2026-04-21T16:29:23.722Z</time></trkpt><trkpt lat="45.6430721" lon="11.4081162"><ele>294.0</ele><time>2026-04-21T16:29:26.721Z</time></trkpt><trkpt lat="45.6431396" lon="11.4080807"><ele>270.0</ele><time>2026-04-21T16:29:29.722Z</time></trkpt><trkpt lat="45.6409278" lon="11.4081893"><ele>270.0</ele><time>2026-04-21T16:27:13.721Z</time></trkpt><trkpt lat="45.6410053" lon="11.4081391"><ele>270.0</ele><time>2026-04-21T16:27:17.721Z</time></trkpt><trkpt lat="45.6410802" lon="11.4081001"><ele>270.0</ele><time>2026-04-21T16:27:20.722Z</time></trkpt><trkpt lat="45.6411447" lon="11.408057"><ele>270.0</ele><time>2026-04-21T16:27:23.722Z</time></trkpt><trkpt lat="45.6412124" lon="11.4080386"><ele>270.0</ele><time>2026-04-21T16:27:27.722Z</time></trkpt><trkpt lat="45.6412881" lon="11.4080293"><ele>270.0</ele><time>2026-04-21T16:27:31.722Z</time></trkpt><trkpt lat="45.6413725" lon="11.408007"><ele>271.0</ele><time>2026-04-21T16:27:35.72Z</time></trkpt><trkpt lat="45.6414352" lon="11.4079959"><ele>272.0</ele><time>2026-04-21T16:27:38.721Z</time></trkpt><trkpt lat="45.6415197" lon="11.40799"><ele>273.0</ele><time>2026-04-21T16:27:42.721Z</time></trkpt><trkpt lat="45.6415998" lon="11.4079745"><ele>274.0</ele><time>2026-04-21T16:27:46.722Z</time></trkpt><trkpt lat="45.6416706" lon="11.4079538"><ele>275.0</ele><time>2026-04-21T16:27:50.721Z</time></trkpt><trkpt lat="45.6417324" lon="11.4079362"><ele>276.0</ele><time>2026-04-21T16:27:53.721Z</time></trkpt><trkpt lat="45.6417957" lon="11.4079201"><ele>277.0</ele><time>2026-04-21T16:27:56.721Z</time></trkpt><trkpt lat="45.6418615" lon="11.4079086"><ele>277.2857142857143</ele><time>2026-04-21T16:27:59.721Z</time></trkpt><trkpt lat="45.6419267" lon="11.4078962"><ele>277.57142857142856</ele><time>2026-04-21T16:28:02.722Z</time></trkpt><trkpt lat="45.6419994" lon="11.4078579"><ele>277.85714285714283</ele><time>2026-04-21T16:28:06.721Z</time></trkpt><trkpt lat="45.6420698" lon="11.4078168"><ele>278.1428571428571</ele><time>2026-04-21T16:28:10.721Z</time></trkpt><trkpt lat="45.6421552" lon="11.4078095"><ele>278.42857142857144</ele><time>2026-04-21T16:28:15.722Z</time></trkpt><trkpt lat="45.6422144" lon="11.407845"><ele>278.71428571428567</ele><time>2026-04-21T16:28:19.721Z</time></trkpt><trkpt lat="45.6422629" lon="11.4079351"><ele>279.0</ele><time>2026-04-21T16:28:24.721Z</time></trkpt><trkpt lat="45.6422967" lon="11.4080321"><ele>281.1428571428571</ele><time>2026-04-21T16:28:28.722Z</time></trkpt><trkpt lat="45.6423396" lon="11.408119"><ele>283.2857142857143</ele><time>2026-04-21T16:28:32.72Z</time></trkpt><trkpt lat="45.642348" lon="11.408225"><ele>285.42857142857144</ele><time>2026-04-21T16:28:37.721Z</time></trkpt><trkpt lat="45.6423783" lon="11.4083222"><ele>287.57142857142856</ele><time>2026-04-21T16:28:42.722Z</time></trkpt><trkpt lat="45.6424352" lon="11.4083663"><ele>289.7142857142857</ele><time>2026-04-21T16:28:47.721Z</time></trkpt><trkpt lat="45.6425032" lon="11.4083689"><ele>291.85714285714283</ele><time>2026-04-21T16:28:51.721Z</time></trkpt><trkpt lat="45.6425845" lon="11.4083489"><ele>294.0</ele><time>2026-04-21T16:28:56.722Z</time></trkpt><trkpt lat="45.6426799" lon="11.4083442"><ele>294.0</ele><time>2026-04-21T16:29:01.722Z</time></trkpt><trkpt lat="45.6427575" lon="11.4083279"><ele>294.0</ele><time>2026-04-21T16:29:05.722Z</time></trkpt><trkpt lat="45.6428208" lon="11.4082888"><ele>294.0</ele><time>2026-04-21T16:29:09.722Z</time></trkpt><trkpt lat="45.6428855" lon="11.4082376"><ele>294.0</ele><time>2026-04-21T16:29:15.721Z</time></trkpt><trkpt lat="45.6429427" lon="11.4081979"><ele>294.0</ele><time>2026-04-21T16:29:19.722Z</time></trkpt><trkpt lat="45.6430095" lon="11.4081406"><ele>294.0</ele><time>2026-04-21T16:29:23.722Z</time></trkpt><trkpt lat="45.6430721" lon="11.4081162"><ele>294.0</ele><time>2026-04-21T16:29:26.721Z</time></trkpt><trkpt lat="45.6431396" lon="11.4080807"><ele>294.0</ele><time>2026-04-21T16:29:29.722Z</time></trkpt><trkpt lat="45.6431932" lon="11.4080154"><ele>294.0</ele><time>2026-04-21T16:29:37.722Z</time></trkpt><trkpt lat="45.6431248" lon="11.4080641"><ele>294.0</ele><time>2026-04-21T16:29:46.721Z</time></trkpt><trkpt lat="45.6430565" lon="11.4080579"><ele>294.0</ele><time>2026-04-21T16:29:49.722Z</time></trkpt><trkpt lat="45.6429757" lon="11.408109"><ele>294.0</ele><time>2026-04-21T16:29:52.721Z</time></trkpt><trkpt lat="45.6429168" lon="11.4081453"><ele>294.0</ele><time>2026-04-21T16:29:54.721Z</time></trkpt><trkpt lat="45.6428446" lon="11.4081693"><ele>294.0</ele><time>2026-04-21T16:29:56.722Z</time></trkpt><trkpt lat="45.642759" lon="11.4081948"><ele>294.0</ele><time>2026-04-21T16:29:58.721Z</time></trkpt><trkpt lat="45.6426556" lon="11.4082146"><ele>294.0</ele><time>2026-04-21T16:30:00.722Z</time></trkpt><trkpt lat="45.6425452" lon="11.4082564"><ele>294.0</ele><time>2026-04-21T16:30:02.721Z</time></trkpt><trkpt lat="45.6424464" lon="11.4082892"><ele>294.0</ele><time>2026-04-21T16:30:04.721Z</time></trkpt><trkpt lat="45.6423733" lon="11.4082678"><ele>294.0</ele><time>2026-04-21T16:30:06.721Z</time></trkpt><trkpt lat="45.6423018" lon="11.4081682"><ele>294.0</ele><time>2026-04-21T16:30:08.721Z</time></trkpt><trkpt lat="45.642277" lon="11.4080219"><ele>294.0</ele><time>2026-04-21T16:30:09.722Z</time></trkpt><trkpt lat="45.6422482" lon="11.4079349"><ele>294.0</ele><time>2026-04-21T16:30:10.721Z</time></trkpt><trkpt lat="45.6422078" lon="11.4078578"><ele>294.0</ele><time>2026-04-21T16:30:11.72Z</time></trkpt><trkpt lat="45.6421771" lon="11.4077698"><ele>294.0</ele><time>2026-04-21T16:30:12.722Z</time></trkpt><trkpt lat="45.6420443" lon="11.4076969"><ele>292.59999999999997</ele><time>2026-04-21T16:30:14.72Z</time></trkpt><trkpt lat="45.6419733" lon="11.4076962"><ele>291.2</ele><time>2026-04-21T16:30:15.721Z</time></trkpt><trkpt lat="45.6418279" lon="11.4077883"><ele>289.79999999999995</ele><time>2026-04-21T16:30:17.722Z</time></trkpt><trkpt lat="45.6417211" lon="11.4078201"><ele>288.4</ele><time>2026-04-21T16:30:18.722Z</time></trkpt><trkpt lat="45.6416297" lon="11.4078402"><ele>287.0</ele><time>2026-04-21T16:30:19.721Z</time></trkpt><trkpt lat="45.6415416" lon="11.407884"><ele>285.4</ele><time>2026-04-21T16:30:20.721Z</time></trkpt><trkpt lat="45.6414527" lon="11.4078941"><ele>283.79999999999995</ele><time>2026-04-21T16:30:21.722Z</time></trkpt><trkpt lat="45.6413716" lon="11.4079472"><ele>282.2</ele><time>2026-04-21T16:30:22.721Z</time></trkpt><trkpt lat="45.6412773" lon="11.4079966"><ele>280.59999999999997</ele><time>2026-04-21T16:30:23.722Z</time></trkpt><trkpt lat="45.6411825" lon="11.4080776"><ele>279.0</ele><time>2026-04-21T16:30:24.722Z</time></trkpt><trkpt lat="45.6410705" lon="11.4080763"><ele>277.2</ele><time>2026-04-21T16:30:25.722Z</time></trkpt><trkpt lat="45.6409619" lon="11.4081401"><ele>275.4</ele><time>2026-04-21T16:30:26.721Z</time></trkpt><trkpt lat="45.6408713" lon="11.4081963"><ele>273.6</ele><time>2026-04-21T16:30:27.722Z</time></trkpt><trkpt lat="45.6407894" lon="11.4082489"><ele>271.8</ele><time>2026-04-21T16:30:28.722Z</time></trkpt><trkpt lat="45.6407027" lon="11.4083077"><ele>270.0</ele><time>2026-04-21T16:30:29.722Z</time></trkpt><trkpt lat="45.6406084" lon="11.4083396"><ele>270.0</ele><time>2026-04-21T16:30:30.72Z</time></trkpt><trkpt lat="45.6405345" lon="11.4084144"><ele>270.0</ele><time>2026-04-21T16:30:31.721Z</time></trkpt><trkpt lat="45.6404539" lon="11.4084833"><ele>270.0</ele><time>2026-04-21T16:30:32.721Z</time></trkpt><trkpt lat="45.6403829" lon="11.4085517"><ele>270.0</ele><time>2026-04-21T16:30:33.721Z</time></trkpt><trkpt lat="45.6403154" lon="11.4086419"><ele>270.0</ele><time>2026-04-21T16:30:34.721Z</time></trkpt><trkpt lat="45.6402499" lon="11.4087262"><ele>270.0</ele><time>2026-04-21T16:30:35.721Z</time></trkpt><trkpt lat="45.6401914" lon="11.4088014"><ele>270.0</ele><time>2026-04-21T16:30:36.722Z</time></trkpt><trkpt lat="45.6401378" lon="11.4088706"><ele>270.0</ele><time>2026-04-21T16:30:37.722Z</time></trkpt><trkpt lat="45.640079" lon="11.4089294"><ele>270.0</ele><time>2026-04-21T16:30:38.722Z</time></trkpt><trkpt lat="45.6399919" lon="11.4090471"><ele>270.0</ele><time>2026-04-21T16:30:40.721Z</time></trkpt><trkpt lat="45.6399011" lon="11.40907"><ele>270.0</ele><time>2026-04-21T16:30:42.721Z</time></trkpt><trkpt lat="45.6398094" lon="11.4091302"><ele>270.0</ele><time>2026-04-21T16:30:44.721Z</time></trkpt><trkpt lat="45.6397082" lon="11.4092003"><ele>270.0</ele><time>2026-04-21T16:30:46.722Z</time></trkpt><trkpt lat="45.6396473" lon="11.4092506"><ele>270.0</ele><time>2026-04-21T16:30:47.722Z</time></trkpt><trkpt lat="45.6395561" lon="11.4093091"><ele>270.0</ele><time>2026-04-21T16:30:49.721Z</time></trkpt><trkpt lat="45.6395064" lon="11.4093734"><ele>270.0</ele><time>2026-04-21T16:30:50.721Z</time></trkpt><trkpt lat="45.6394038" lon="11.4094539"><ele>270.5</ele><time>2026-04-21T16:30:52.72Z</time></trkpt><trkpt lat="45.6393072" lon="11.4094954"><ele>271.0</ele><time>2026-04-21T16:30:54.722Z</time></trkpt><trkpt lat="45.6392333" lon="11.4095431"><ele>271.5</ele><time>2026-04-21T16:30:56.721Z</time></trkpt><trkpt lat="45.6391441" lon="11.4095961"><ele>272.0</ele><time>2026-04-21T16:30:58.721Z</time></trkpt><trkpt lat="45.6390561" lon="11.4096356"><ele>272.5</ele><time>2026-04-21T16:31:00.722Z</time></trkpt><trkpt lat="45.6390043" lon="11.4096965"><ele>273.0</ele><time>2026-04-21T16:31:02.721Z</time></trkpt><trkpt lat="45.6389981" lon="11.4098413"><ele>271.8</ele><time>2026-04-21T16:31:04.721Z</time></trkpt><trkpt lat="45.6389697" lon="11.4099927"><ele>270.6</ele><time>2026-04-21T16:31:06.722Z</time></trkpt><trkpt lat="45.6388961" lon="11.4100563"><ele>269.4</ele><time>2026-04-21T16:31:08.721Z</time></trkpt><trkpt lat="45.6388203" lon="11.4099841"><ele>268.2</ele><time>2026-04-21T16:31:11.722Z</time></trkpt><trkpt lat="45.6387596" lon="11.4098364"><ele>267.0</ele><time>2026-04-21T16:31:13.721Z</time></trkpt><trkpt lat="45.6386578" lon="11.4097322"><ele>266.5</ele><time>2026-04-21T16:31:15.722Z</time></trkpt><trkpt lat="45.63858" lon="11.4096256"><ele>266.0</ele><time>2026-04-21T16:31:17.722Z</time></trkpt><trkpt lat="45.6385298" lon="11.4095049"><ele>265.5</ele><time>2026-04-21T16:31:19.722Z</time></trkpt><trkpt lat="45.638493" lon="11.4094299"><ele>265.0</ele><time>2026-04-21T16:31:20.721Z</time></trkpt><trkpt lat="45.6384559" lon="11.4093009"><ele>264.5</ele><time>2026-04-21T16:31:22.721Z</time></trkpt><trkpt lat="45.6384154" lon="11.4092319"><ele>264.0</ele><time>2026-04-21T16:31:23.721Z</time></trkpt><trkpt lat="45.6383371" lon="11.4091136"><ele>264.0</ele><time>2026-04-21T16:31:25.722Z</time></trkpt><trkpt lat="45.6382877" lon="11.4090203"><ele>264.0</ele><time>2026-04-21T16:31:27.722Z</time></trkpt><trkpt lat="45.6382288" lon="11.4089414"><ele>264.0</ele><time>2026-04-21T16:31:29.72Z</time></trkpt><trkpt lat="45.6381823" lon="11.408869"><ele>264.0</ele><time>2026-04-21T16:31:32.722Z</time></trkpt><trkpt lat="45.638102" lon="11.4088305"><ele>264.0</ele><time>2026-04-21T16:31:36.721Z</time></trkpt><trkpt lat="45.6380075" lon="11.4088235"><ele>264.0</ele><time>2026-04-21T16:31:39.721Z</time></trkpt><trkpt lat="45.637931" lon="11.4088097"><ele>266.1666666666667</ele><time>2026-04-21T16:31:41.721Z</time></trkpt><trkpt lat="45.637831" lon="11.4087432"><ele>268.3333333333333</ele><time>2026-04-21T16:31:43.721Z</time></trkpt><trkpt lat="45.6377721" lon="11.4087094"><ele>270.5</ele><time>2026-04-21T16:31:44.721Z</time></trkpt><trkpt lat="45.6376739" lon="11.4087272"><ele>272.66666666666663</ele><time>2026-04-21T16:31:46.722Z</time></trkpt><trkpt lat="45.6376076" lon="11.4086849"><ele>274.8333333333333</ele><time>2026-04-21T16:31:47.721Z</time></trkpt><trkpt lat="45.6375351" lon="11.4087028"><ele>277.0</ele><time>2026-04-21T16:31:48.721Z</time></trkpt><trkpt lat="45.6374661" lon="11.4086731"><ele>277.8</ele><time>2026-04-21T16:31:49.721Z</time></trkpt><trkpt lat="45.6373503" lon="11.4087796"><ele>278.6</ele><time>2026-04-21T16:31:51.722Z</time></trkpt><trkpt lat="45.6372857" lon="11.4087682"><ele>279.40000000000003</ele><time>2026-04-21T16:31:52.722Z</time></trkpt><trkpt lat="45.6371699" lon="11.4088457"><ele>280.2</ele><time>2026-04-21T16:31:54.722Z</time></trkpt><trkpt lat="45.6370917" lon="11.4088733"><ele>281.0</ele><time>2026-04-21T16:31:56.722Z</time></trkpt><trkpt lat="45.6370336" lon="11.4089128"><ele>280.1666666666667</ele><time>2026-04-21T16:31:58.722Z</time></trkpt><trkpt lat="45.6369445" lon="11.4088887"><ele>279.33333333333337</ele><time>2026-04-21T16:32:00.721Z</time></trkpt><trkpt lat="45.6368609" lon="11.4088827"><ele>278.5</ele><time>2026-04-21T16:32:02.721Z</time></trkpt><trkpt lat="45.6367798" lon="11.4088186"><ele>277.6666666666667</ele><time>2026-04-21T16:32:04.722Z</time></trkpt><trkpt lat="45.6366947" lon="11.4088132"><ele>276.8333333333333</ele><time>2026-04-21T16:32:06.722Z</time></trkpt><trkpt lat="45.6366254" lon="11.4087765"><ele>276.0</ele><time>2026-04-21T16:32:08.72Z</time></trkpt><trkpt lat="45.6365409" lon="11.4087317"><ele>276.0</ele><time>2026-04-21T16:32:11.722Z</time></trkpt><trkpt lat="45.6364694" lon="11.4087295"><ele>276.0</ele><time>2026-04-21T16:32:14.722Z</time></trkpt><trkpt lat="45.6364423" lon="11.4088303"><ele>276.0</ele><time>2026-04-21T16:32:16.721Z</time></trkpt><trkpt lat="45.6364246" lon="11.4089504"><ele>276.0</ele><time>2026-04-21T16:32:18.721Z</time></trkpt><trkpt lat="45.6363952" lon="11.4090514"><ele>276.0</ele><time>2026-04-21T16:32:20.721Z</time></trkpt><trkpt lat="45.6363619" lon="11.4089668"><ele>276.0</ele><time>2026-04-21T16:32:22.721Z</time></trkpt><trkpt lat="45.6363802" lon="11.4090571"><ele>276.0</ele><time>2026-04-21T16:32:25.754Z</time></trkpt><trkpt lat="45.6371699" lon="11.4088457"><ele>276.0</ele><time>2026-04-21T16:31:54.722Z</time></trkpt><trkpt lat="45.6370917" lon="11.4088733"><ele>276.0</ele><time>2026-04-21T16:31:56.722Z</time></trkpt><trkpt lat="45.6370336" lon="11.4089128"><ele>276.0</ele><time>2026-04-21T16:31:58.722Z</time></trkpt><trkpt lat="45.6369445" lon="11.4088887"><ele>276.0</ele><time>2026-04-21T16:32:00.721Z</time></trkpt><trkpt lat="45.6368609" lon="11.4088827"><ele>276.0</ele><time>2026-04-21T16:32:02.721Z</time></trkpt><trkpt lat="45.6367798" lon="11.4088186"><ele>276.0</ele><time>2026-04-21T16:32:04.722Z</time></trkpt><trkpt lat="45.6366947" lon="11.4088132"><ele>276.0</ele><time>2026-04-21T16:32:06.722Z</time></trkpt><trkpt lat="45.6366254" lon="11.4087765"><ele>276.0</ele><time>2026-04-21T16:32:08.72Z</time></trkpt><trkpt lat="45.6365409" lon="11.4087317"><ele>276.0</ele><time>2026-04-21T16:32:11.722Z</time></trkpt><trkpt lat="45.6364694" lon="11.4087295"><ele>276.0</ele><time>2026-04-21T16:32:14.722Z</time></trkpt><trkpt lat="45.6364423" lon="11.4088303"><ele>276.0</ele><time>2026-04-21T16:32:16.721Z</time></trkpt><trkpt lat="45.6364246" lon="11.4089504"><ele>276.0</ele><time>2026-04-21T16:32:18.721Z</time></trkpt><trkpt lat="45.6363952" lon="11.4090514"><ele>272.6666666666667</ele><time>2026-04-21T16:32:20.721Z</time></trkpt><trkpt lat="45.6363619" lon="11.4089668"><ele>269.3333333333333</ele><time>2026-04-21T16:32:22.721Z</time></trkpt><trkpt lat="45.6363802" lon="11.4090571"><ele>266.0</ele><time>2026-04-21T16:32:25.754Z</time></trkpt><trkpt lat="45.6364203" lon="11.4091615"><ele>262.66666666666663</ele><time>2026-04-21T16:32:28.721Z</time></trkpt><trkpt lat="45.636459" lon="11.409238"><ele>259.3333333333333</ele><time>2026-04-21T16:32:30.722Z</time></trkpt><trkpt lat="45.6365569" lon="11.4094197"><ele>256.0</ele><time>2026-04-21T16:32:33.722Z</time></trkpt><trkpt lat="45.6365103" lon="11.4095124"><ele>255.99999999999997</ele><time>2026-04-21T16:32:36.722Z</time></trkpt><trkpt lat="45.636464" lon="11.4096177"><ele>256.0</ele><time>2026-04-21T16:32:39.721Z</time></trkpt><trkpt lat="45.6364098" lon="11.4097991"><ele>256.0</ele><time>2026-04-21T16:32:41.722Z</time></trkpt><trkpt lat="45.6363616" lon="11.4098608"><ele>256.0</ele><time>2026-04-21T16:32:43.721Z</time></trkpt><trkpt lat="45.6362976" lon="11.4099029"><ele>255.99999999999997</ele><time>2026-04-21T16:32:45.721Z</time></trkpt><trkpt lat="45.6362323" lon="11.4099646"><ele>256.0</ele><time>2026-04-21T16:32:48.722Z</time></trkpt><trkpt lat="45.6361849" lon="11.409889"><ele>252.7142857142857</ele><time>2026-04-21T16:32:50.722Z</time></trkpt><trkpt lat="45.6361156" lon="11.4098849"><ele>249.4285714285714</ele><time>2026-04-21T16:32:53.721Z</time></trkpt><trkpt lat="45.6360427" lon="11.4099451"><ele>246.14285714285714</ele><time>2026-04-21T16:32:56.721Z</time></trkpt><trkpt lat="45.6360018" lon="11.4100144"><ele>242.85714285714283</ele><time>2026-04-21T16:32:58.722Z</time></trkpt><trkpt lat="45.6359477" lon="11.4100668"><ele>239.57142857142856</ele><time>2026-04-21T16:33:00.721Z</time></trkpt><trkpt lat="45.6358904" lon="11.4101174"><ele>236.28571428571428</ele><time>2026-04-21T16:33:02.721Z</time></trkpt><trkpt lat="45.6358105" lon="11.4101684"><ele>233.0</ele><time>2026-04-21T16:33:04.721Z</time></trkpt><trkpt lat="45.6357526" lon="11.4102353"><ele>233.00000000000003</ele><time>2026-04-21T16:33:06.721Z</time></trkpt><trkpt lat="45.6356936" lon="11.4102874"><ele>233.0</ele><time>2026-04-21T16:33:12.721Z</time></trkpt><trkpt lat="45.6355869" lon="11.4104173"><ele>233.0</ele><time>2026-04-21T16:33:13.721Z</time></trkpt><trkpt lat="45.635529" lon="11.4104661"><ele>233.0</ele><time>2026-04-21T16:33:15.721Z</time></trkpt><trkpt lat="45.6354681" lon="11.4105134"><ele>233.00000000000003</ele><time>2026-04-21T16:33:17.722Z</time></trkpt><trkpt lat="45.6354163" lon="11.4106"><ele>233.0</ele><time>2026-04-21T16:33:19.721Z</time></trkpt><trkpt lat="45.6353621" lon="11.4107476"><ele>231.0</ele><time>2026-04-21T16:33:20.721Z</time></trkpt><trkpt lat="45.6353488" lon="11.4108427"><ele>229.0</ele><time>2026-04-21T16:33:21.721Z</time></trkpt><trkpt lat="45.6353295" lon="11.4109522"><ele>227.0</ele><time>2026-04-21T16:33:23.721Z</time></trkpt><trkpt lat="45.635375" lon="11.4110776"><ele>225.0</ele><time>2026-04-21T16:33:26.722Z</time></trkpt><trkpt lat="45.6354659" lon="11.4110944"><ele>223.0</ele><time>2026-04-21T16:33:28.721Z</time></trkpt><trkpt lat="45.6355863" lon="11.411117"><ele>223.0</ele><time>2026-04-21T16:33:30.721Z</time></trkpt><trkpt lat="45.635695" lon="11.4110711"><ele>223.0</ele><time>2026-04-21T16:33:32.721Z</time></trkpt><trkpt lat="45.6358851" lon="11.4111507"><ele>223.0</ele><time>2026-04-21T16:33:37.721Z</time></trkpt><trkpt lat="45.6359219" lon="11.4112759"><ele>223.0</ele><time>2026-04-21T16:33:39.722Z</time></trkpt><trkpt lat="45.6359687" lon="11.4113721"><ele>220.49999999999997</ele><time>2026-04-21T16:33:40.722Z</time></trkpt><trkpt lat="45.6360098" lon="11.4114447"><ele>218.0</ele><time>2026-04-21T16:33:41.721Z</time></trkpt><trkpt lat="45.6360163" lon="11.4115629"><ele>215.5</ele><time>2026-04-21T16:33:42.722Z</time></trkpt><trkpt lat="45.6360613" lon="11.4117066"><ele>213.0</ele><time>2026-04-21T16:33:44.721Z</time></trkpt><trkpt lat="45.6360538" lon="11.4117967"><ele>210.49999999999997</ele><time>2026-04-21T16:33:45.721Z</time></trkpt><trkpt lat="45.6360645" lon="11.4119575"><ele>208.0</ele><time>2026-04-21T16:33:47.722Z</time></trkpt><trkpt lat="45.6361016" lon="11.4121152"><ele>205.8</ele><time>2026-04-21T16:33:49.721Z</time></trkpt><trkpt lat="45.636094" lon="11.4122892"><ele>203.60000000000002</ele><time>2026-04-21T16:33:51.722Z</time></trkpt><trkpt lat="45.6360704" lon="11.4124228"><ele>201.39999999999998</ele><time>2026-04-21T16:33:53.721Z</time></trkpt><trkpt lat="45.6359988" lon="11.4125078"><ele>199.2</ele><time>2026-04-21T16:33:55.722Z</time></trkpt><trkpt lat="45.6359207" lon="11.4125434"><ele>197.0</ele><time>2026-04-21T16:33:57.721Z</time></trkpt><trkpt lat="45.635806" lon="11.4125969"><ele>197.00000000000003</ele><time>2026-04-21T16:33:59.722Z</time></trkpt><trkpt lat="45.6357307" lon="11.4127251"><ele>197.0</ele><time>2026-04-21T16:34:01.72Z</time></trkpt><trkpt lat="45.6357048" lon="11.4128166"><ele>197.0</ele><time>2026-04-21T16:34:02.721Z</time></trkpt><trkpt lat="45.6356667" lon="11.4128976"><ele>197.0</ele><time>2026-04-21T16:34:03.722Z</time></trkpt><trkpt lat="45.6356284" lon="11.4129749"><ele>197.00000000000003</ele><time>2026-04-21T16:34:04.721Z</time></trkpt><trkpt lat="45.6355932" lon="11.4130508"><ele>197.0</ele><time>2026-04-21T16:34:05.722Z</time></trkpt><trkpt lat="45.6355502" lon="11.4131258"><ele>195.50000000000003</ele><time>2026-04-21T16:34:06.722Z</time></trkpt><trkpt lat="45.6355246" lon="11.4132173"><ele>194.0</ele><time>2026-04-21T16:34:07.722Z</time></trkpt><trkpt lat="45.6354946" lon="11.4133172"><ele>192.5</ele><time>2026-04-21T16:34:08.721Z</time></trkpt><trkpt lat="45.6354902" lon="11.4134123"><ele>191.0</ele><time>2026-04-21T16:34:09.722Z</time></trkpt><trkpt lat="45.635448" lon="11.4134995"><ele>189.5</ele><time>2026-04-21T16:34:10.722Z</time></trkpt><trkpt lat="45.6354426" lon="11.4135988"><ele>188.0</ele><time>2026-04-21T16:34:11.722Z</time></trkpt><trkpt lat="45.6353776" lon="11.4137522"><ele>185.0</ele><time>2026-04-21T16:34:13.721Z</time></trkpt><trkpt lat="45.6353304" lon="11.4139053"><ele>182.0</ele><time>2026-04-21T16:34:15.721Z</time></trkpt><trkpt lat="45.6352832" lon="11.4140555"><ele>179.0</ele><time>2026-04-21T16:34:17.722Z</time></trkpt><trkpt lat="45.6352128" lon="11.4141947"><ele>176.0</ele><time>2026-04-21T16:34:19.722Z</time></trkpt><trkpt lat="45.6351414" lon="11.4143431"><ele>174.66666666666666</ele><time>2026-04-21T16:34:21.72Z</time></trkpt><trkpt lat="45.6350878" lon="11.4144178"><ele>173.33333333333331</ele><time>2026-04-21T16:34:22.722Z</time></trkpt><trkpt lat="45.6350526" lon="11.4145117"><ele>172.0</ele><time>2026-04-21T16:34:23.721Z</time></trkpt><trkpt lat="45.6349925" lon="11.4146111"><ele>170.66666666666666</ele><time>2026-04-21T16:34:24.721Z</time></trkpt><trkpt lat="45.6349424" lon="11.4146897"><ele>169.33333333333334</ele><time>2026-04-21T16:34:25.721Z</time></trkpt><trkpt lat="45.6348808" lon="11.41478"><ele>168.0</ele><time>2026-04-21T16:34:26.721Z</time></trkpt><trkpt lat="45.6348253" lon="11.4148381"><ele>167.16666666666666</ele><time>2026-04-21T16:34:27.721Z</time></trkpt><trkpt lat="45.6347828" lon="11.4149165"><ele>166.33333333333334</ele><time>2026-04-21T16:34:28.722Z</time></trkpt><trkpt lat="45.6347543" lon="11.4150568"><ele>165.5</ele><time>2026-04-21T16:34:30.722Z</time></trkpt><trkpt lat="45.6347089" lon="11.4151759"><ele>164.66666666666669</ele><time>2026-04-21T16:34:32.722Z</time></trkpt><trkpt lat="45.6346421" lon="11.4151816"><ele>163.83333333333334</ele><time>2026-04-21T16:34:34.722Z</time></trkpt><trkpt lat="45.634563" lon="11.4151402"><ele>163.0</ele><time>2026-04-21T16:34:36.722Z</time></trkpt><trkpt lat="45.6344864" lon="11.4151268"><ele>163.0</ele><time>2026-04-21T16:34:38.721Z</time></trkpt><trkpt lat="45.6343962" lon="11.4151629"><ele>153.0</ele><time>2026-04-21T16:34:40.721Z</time></trkpt><trkpt lat="45.6343236" lon="11.4152266"><ele>153.0</ele><time>2026-04-21T16:34:42.722Z</time></trkpt><trkpt lat="45.6343076" lon="11.4153556"><ele>153.0</ele><time>2026-04-21T16:34:44.721Z</time></trkpt></trkseg></trk></gpx>